<?xml version="1.0" encoding="UTF-8" standalone="no" ?>
<gpx xmlns="http://www.topografix.com/GPX/1/1" xmlns:xsi="http://www.w3.org/2001/XMLSchema-instance" xsi:schemaLocation="http://www.topografix.com/GPX/1/1 http://www.topografix.com/GPX/1/1/gpx.xsd" version="1.1" creator="VisuGPX - https://www.visugpx.com">
  <metadata>
    <name>Montreuil</name>
  </metadata>
  <trk>
    <name><![CDATA[Montreuil_1]]></name>
    <trkseg>
      <trkpt lat="50.45951" lon="1.75932">
        <ele>50.3</ele>
        <time>2019-10-06T07:36:32Z</time>
      </trkpt>
      <trkpt lat="50.45947" lon="1.75929">
        <ele>48</ele>
        <time>2019-10-06T07:37:13Z</time>
      </trkpt>
      <trkpt lat="50.45943" lon="1.75924">
        <ele>46.7</ele>
        <time>2019-10-06T07:37:30Z</time>
      </trkpt>
      <trkpt lat="50.4594" lon="1.75917">
        <ele>46.3</ele>
        <time>2019-10-06T07:37:34Z</time>
      </trkpt>
      <trkpt lat="50.45938" lon="1.75904">
        <ele>45.5</ele>
        <time>2019-10-06T07:37:42Z</time>
      </trkpt>
      <trkpt lat="50.45938" lon="1.75897">
        <ele>45.1</ele>
        <time>2019-10-06T07:37:48Z</time>
      </trkpt>
      <trkpt lat="50.45939" lon="1.7589">
        <ele>45</ele>
        <time>2019-10-06T07:37:50Z</time>
      </trkpt>
      <trkpt lat="50.45941" lon="1.75882">
        <ele>44.9</ele>
        <time>2019-10-06T07:37:55Z</time>
      </trkpt>
      <trkpt lat="50.45943" lon="1.75874">
        <ele>44.9</ele>
        <time>2019-10-06T07:37:58Z</time>
      </trkpt>
      <trkpt lat="50.45944" lon="1.75867">
        <ele>45</ele>
        <time>2019-10-06T07:38:03Z</time>
      </trkpt>
      <trkpt lat="50.45944" lon="1.75859">
        <ele>45.2</ele>
        <time>2019-10-06T07:38:08Z</time>
      </trkpt>
      <trkpt lat="50.45944" lon="1.75851">
        <ele>45.5</ele>
        <time>2019-10-06T07:38:14Z</time>
      </trkpt>
      <trkpt lat="50.45944" lon="1.75843">
        <ele>46</ele>
        <time>2019-10-06T07:38:20Z</time>
      </trkpt>
      <trkpt lat="50.45945" lon="1.75836">
        <ele>46.1</ele>
        <time>2019-10-06T07:38:26Z</time>
      </trkpt>
      <trkpt lat="50.45946" lon="1.75828">
        <ele>45.9</ele>
        <time>2019-10-06T07:38:33Z</time>
      </trkpt>
      <trkpt lat="50.45949" lon="1.75823">
        <ele>45.2</ele>
        <time>2019-10-06T07:38:41Z</time>
      </trkpt>
      <trkpt lat="50.45958" lon="1.75822">
        <ele>47.7</ele>
        <time>2019-10-06T07:39:29Z</time>
      </trkpt>
      <trkpt lat="50.45964" lon="1.75824">
        <ele>48.1</ele>
        <time>2019-10-06T07:39:37Z</time>
      </trkpt>
      <trkpt lat="50.45969" lon="1.75825">
        <ele>48.2</ele>
        <time>2019-10-06T07:39:42Z</time>
      </trkpt>
      <trkpt lat="50.45974" lon="1.75827">
        <ele>48.2</ele>
        <time>2019-10-06T07:39:49Z</time>
      </trkpt>
      <trkpt lat="50.45978" lon="1.7583">
        <ele>48.5</ele>
        <time>2019-10-06T07:39:55Z</time>
      </trkpt>
      <trkpt lat="50.45995" lon="1.75833">
        <ele>50</ele>
        <time>2019-10-06T07:40:13Z</time>
      </trkpt>
      <trkpt lat="50.45999" lon="1.75832">
        <ele>50.2</ele>
        <time>2019-10-06T07:40:18Z</time>
      </trkpt>
      <trkpt lat="50.46004" lon="1.75834">
        <ele>50.9</ele>
        <time>2019-10-06T07:40:26Z</time>
      </trkpt>
      <trkpt lat="50.46009" lon="1.75834">
        <ele>51.6</ele>
        <time>2019-10-06T07:40:31Z</time>
      </trkpt>
      <trkpt lat="50.46013" lon="1.75833">
        <ele>52.3</ele>
        <time>2019-10-06T07:40:35Z</time>
      </trkpt>
      <trkpt lat="50.46018" lon="1.75834">
        <ele>53.4</ele>
        <time>2019-10-06T07:40:40Z</time>
      </trkpt>
      <trkpt lat="50.46024" lon="1.75834">
        <ele>54.6</ele>
        <time>2019-10-06T07:40:45Z</time>
      </trkpt>
      <trkpt lat="50.46029" lon="1.75833">
        <ele>55.1</ele>
        <time>2019-10-06T07:40:47Z</time>
      </trkpt>
      <trkpt lat="50.46034" lon="1.75833">
        <ele>55.9</ele>
        <time>2019-10-06T07:40:51Z</time>
      </trkpt>
      <trkpt lat="50.46039" lon="1.75834">
        <ele>56.8</ele>
        <time>2019-10-06T07:40:57Z</time>
      </trkpt>
      <trkpt lat="50.46044" lon="1.75838">
        <ele>57.4</ele>
        <time>2019-10-06T07:41:03Z</time>
      </trkpt>
      <trkpt lat="50.46049" lon="1.75842">
        <ele>57.6</ele>
        <time>2019-10-06T07:41:08Z</time>
      </trkpt>
      <trkpt lat="50.46056" lon="1.75849">
        <ele>57.4</ele>
        <time>2019-10-06T07:41:17Z</time>
      </trkpt>
      <trkpt lat="50.4606" lon="1.75855">
        <ele>57.2</ele>
        <time>2019-10-06T07:41:20Z</time>
      </trkpt>
      <trkpt lat="50.46063" lon="1.7586">
        <ele>56.9</ele>
        <time>2019-10-06T07:41:24Z</time>
      </trkpt>
      <trkpt lat="50.46063" lon="1.75867">
        <ele>55.2</ele>
        <time>2019-10-06T07:41:44Z</time>
      </trkpt>
      <trkpt lat="50.46067" lon="1.75871">
        <ele>53.9</ele>
        <time>2019-10-06T07:41:56Z</time>
      </trkpt>
      <trkpt lat="50.46067" lon="1.75879">
        <ele>53.3</ele>
        <time>2019-10-06T07:42:08Z</time>
      </trkpt>
      <trkpt lat="50.46063" lon="1.75884">
        <ele>52.7</ele>
        <time>2019-10-06T07:42:19Z</time>
      </trkpt>
      <trkpt lat="50.4606" lon="1.7589">
        <ele>52.2</ele>
        <time>2019-10-06T07:42:27Z</time>
      </trkpt>
      <trkpt lat="50.46057" lon="1.75896">
        <ele>49.8</ele>
        <time>2019-10-06T07:42:49Z</time>
      </trkpt>
      <trkpt lat="50.46054" lon="1.75902">
        <ele>48.4</ele>
        <time>2019-10-06T07:43:09Z</time>
      </trkpt>
      <trkpt lat="50.4605" lon="1.75907">
        <ele>48.1</ele>
        <time>2019-10-06T07:43:14Z</time>
      </trkpt>
      <trkpt lat="50.46045" lon="1.75911">
        <ele>48</ele>
        <time>2019-10-06T07:43:19Z</time>
      </trkpt>
      <trkpt lat="50.46041" lon="1.75914">
        <ele>48</ele>
        <time>2019-10-06T07:43:25Z</time>
      </trkpt>
      <trkpt lat="50.46036" lon="1.75915">
        <ele>48</ele>
        <time>2019-10-06T07:43:30Z</time>
      </trkpt>
      <trkpt lat="50.46032" lon="1.7592">
        <ele>48.9</ele>
        <time>2019-10-06T07:44:01Z</time>
      </trkpt>
      <trkpt lat="50.46029" lon="1.75925">
        <ele>52.2</ele>
        <time>2019-10-06T07:44:39Z</time>
      </trkpt>
      <trkpt lat="50.46026" lon="1.75932">
        <ele>52.5</ele>
        <time>2019-10-06T07:44:47Z</time>
      </trkpt>
      <trkpt lat="50.46024" lon="1.7594">
        <ele>52.4</ele>
        <time>2019-10-06T07:44:53Z</time>
      </trkpt>
      <trkpt lat="50.46021" lon="1.75945">
        <ele>52.1</ele>
        <time>2019-10-06T07:44:57Z</time>
      </trkpt>
      <trkpt lat="50.46019" lon="1.75952">
        <ele>51.8</ele>
        <time>2019-10-06T07:45:02Z</time>
      </trkpt>
      <trkpt lat="50.46016" lon="1.75958">
        <ele>51.5</ele>
        <time>2019-10-06T07:45:09Z</time>
      </trkpt>
      <trkpt lat="50.46014" lon="1.75965">
        <ele>51.1</ele>
        <time>2019-10-06T07:45:20Z</time>
      </trkpt>
      <trkpt lat="50.46014" lon="1.75973">
        <ele>51.2</ele>
        <time>2019-10-06T07:45:27Z</time>
      </trkpt>
      <trkpt lat="50.46015" lon="1.7598">
        <ele>51.6</ele>
        <time>2019-10-06T07:45:34Z</time>
      </trkpt>
      <trkpt lat="50.46016" lon="1.75989">
        <ele>52.1</ele>
        <time>2019-10-06T07:45:39Z</time>
      </trkpt>
      <trkpt lat="50.46016" lon="1.75996">
        <ele>52.7</ele>
        <time>2019-10-06T07:45:44Z</time>
      </trkpt>
      <trkpt lat="50.46016" lon="1.76004">
        <ele>53.1</ele>
        <time>2019-10-06T07:45:48Z</time>
      </trkpt>
      <trkpt lat="50.46016" lon="1.76012">
        <ele>53.4</ele>
        <time>2019-10-06T07:45:54Z</time>
      </trkpt>
      <trkpt lat="50.46015" lon="1.76019">
        <ele>53.7</ele>
        <time>2019-10-06T07:45:59Z</time>
      </trkpt>
      <trkpt lat="50.46015" lon="1.76027">
        <ele>53.8</ele>
        <time>2019-10-06T07:46:02Z</time>
      </trkpt>
      <trkpt lat="50.46015" lon="1.76035">
        <ele>53.9</ele>
        <time>2019-10-06T07:46:06Z</time>
      </trkpt>
      <trkpt lat="50.46015" lon="1.76042">
        <ele>54</ele>
        <time>2019-10-06T07:46:11Z</time>
      </trkpt>
      <trkpt lat="50.46014" lon="1.76049">
        <ele>54.1</ele>
        <time>2019-10-06T07:46:17Z</time>
      </trkpt>
      <trkpt lat="50.46014" lon="1.76058">
        <ele>54.2</ele>
        <time>2019-10-06T07:46:22Z</time>
      </trkpt>
      <trkpt lat="50.46015" lon="1.76066">
        <ele>54.1</ele>
        <time>2019-10-06T07:46:27Z</time>
      </trkpt>
      <trkpt lat="50.46016" lon="1.76073">
        <ele>54.1</ele>
        <time>2019-10-06T07:46:33Z</time>
      </trkpt>
      <trkpt lat="50.46016" lon="1.76081">
        <ele>54</ele>
        <time>2019-10-06T07:46:39Z</time>
      </trkpt>
      <trkpt lat="50.46011" lon="1.76086">
        <ele>53.8</ele>
        <time>2019-10-06T07:46:49Z</time>
      </trkpt>
      <trkpt lat="50.46007" lon="1.76084">
        <ele>53.8</ele>
        <time>2019-10-06T07:46:52Z</time>
      </trkpt>
      <trkpt lat="50.46011" lon="1.76082">
        <ele>53.8</ele>
        <time>2019-10-06T07:47:29Z</time>
      </trkpt>
      <trkpt lat="50.46018" lon="1.76088">
        <ele>53.6</ele>
        <time>2019-10-06T07:48:46Z</time>
      </trkpt>
      <trkpt lat="50.46022" lon="1.76092">
        <ele>53.8</ele>
        <time>2019-10-06T07:48:53Z</time>
      </trkpt>
      <trkpt lat="50.46026" lon="1.76094">
        <ele>53.9</ele>
        <time>2019-10-06T07:48:59Z</time>
      </trkpt>
      <trkpt lat="50.46031" lon="1.76096">
        <ele>53.9</ele>
        <time>2019-10-06T07:49:04Z</time>
      </trkpt>
      <trkpt lat="50.46036" lon="1.761">
        <ele>53.9</ele>
        <time>2019-10-06T07:49:09Z</time>
      </trkpt>
      <trkpt lat="50.46039" lon="1.76104">
        <ele>53.8</ele>
        <time>2019-10-06T07:49:13Z</time>
      </trkpt>
      <trkpt lat="50.46043" lon="1.76108">
        <ele>53.4</ele>
        <time>2019-10-06T07:49:19Z</time>
      </trkpt>
      <trkpt lat="50.46044" lon="1.76115">
        <ele>52.5</ele>
        <time>2019-10-06T07:49:27Z</time>
      </trkpt>
      <trkpt lat="50.46043" lon="1.76124">
        <ele>51.9</ele>
        <time>2019-10-06T07:49:32Z</time>
      </trkpt>
      <trkpt lat="50.46043" lon="1.76132">
        <ele>51.3</ele>
        <time>2019-10-06T07:49:37Z</time>
      </trkpt>
      <trkpt lat="50.46043" lon="1.7614">
        <ele>50.6</ele>
        <time>2019-10-06T07:49:41Z</time>
      </trkpt>
      <trkpt lat="50.46043" lon="1.76149">
        <ele>50</ele>
        <time>2019-10-06T07:49:45Z</time>
      </trkpt>
      <trkpt lat="50.46044" lon="1.76158">
        <ele>49.5</ele>
        <time>2019-10-06T07:49:49Z</time>
      </trkpt>
      <trkpt lat="50.46044" lon="1.76166">
        <ele>48.8</ele>
        <time>2019-10-06T07:49:55Z</time>
      </trkpt>
      <trkpt lat="50.46042" lon="1.76174">
        <ele>48.5</ele>
        <time>2019-10-06T07:50:01Z</time>
      </trkpt>
      <trkpt lat="50.46042" lon="1.76182">
        <ele>48.5</ele>
        <time>2019-10-06T07:50:05Z</time>
      </trkpt>
      <trkpt lat="50.46043" lon="1.76189">
        <ele>48.4</ele>
        <time>2019-10-06T07:50:09Z</time>
      </trkpt>
      <trkpt lat="50.46046" lon="1.76196">
        <ele>48.2</ele>
        <time>2019-10-06T07:50:13Z</time>
      </trkpt>
      <trkpt lat="50.46049" lon="1.76202">
        <ele>47.8</ele>
        <time>2019-10-06T07:50:17Z</time>
      </trkpt>
      <trkpt lat="50.46053" lon="1.76207">
        <ele>46.9</ele>
        <time>2019-10-06T07:50:22Z</time>
      </trkpt>
      <trkpt lat="50.46057" lon="1.76212">
        <ele>45.8</ele>
        <time>2019-10-06T07:50:27Z</time>
      </trkpt>
      <trkpt lat="50.4606" lon="1.76216">
        <ele>45.1</ele>
        <time>2019-10-06T07:50:30Z</time>
      </trkpt>
      <trkpt lat="50.46065" lon="1.76221">
        <ele>44.1</ele>
        <time>2019-10-06T07:50:35Z</time>
      </trkpt>
      <trkpt lat="50.4607" lon="1.76225">
        <ele>43.2</ele>
        <time>2019-10-06T07:50:40Z</time>
      </trkpt>
      <trkpt lat="50.46074" lon="1.76228">
        <ele>42.6</ele>
        <time>2019-10-06T07:50:44Z</time>
      </trkpt>
      <trkpt lat="50.4608" lon="1.76232">
        <ele>42</ele>
        <time>2019-10-06T07:50:48Z</time>
      </trkpt>
      <trkpt lat="50.46084" lon="1.76235">
        <ele>41.3</ele>
        <time>2019-10-06T07:50:52Z</time>
      </trkpt>
      <trkpt lat="50.46089" lon="1.76239">
        <ele>40.4</ele>
        <time>2019-10-06T07:50:57Z</time>
      </trkpt>
      <trkpt lat="50.46094" lon="1.76243">
        <ele>40</ele>
        <time>2019-10-06T07:51:01Z</time>
      </trkpt>
      <trkpt lat="50.46098" lon="1.76247">
        <ele>39.5</ele>
        <time>2019-10-06T07:51:05Z</time>
      </trkpt>
      <trkpt lat="50.46102" lon="1.76251">
        <ele>38.7</ele>
        <time>2019-10-06T07:51:11Z</time>
      </trkpt>
      <trkpt lat="50.46107" lon="1.76255">
        <ele>37.7</ele>
        <time>2019-10-06T07:51:16Z</time>
      </trkpt>
      <trkpt lat="50.46111" lon="1.76258">
        <ele>37</ele>
        <time>2019-10-06T07:51:22Z</time>
      </trkpt>
      <trkpt lat="50.46115" lon="1.76261">
        <ele>37.3</ele>
        <time>2019-10-06T07:51:28Z</time>
      </trkpt>
      <trkpt lat="50.4612" lon="1.76264">
        <ele>38.2</ele>
        <time>2019-10-06T07:51:34Z</time>
      </trkpt>
      <trkpt lat="50.46124" lon="1.76268">
        <ele>38.9</ele>
        <time>2019-10-06T07:51:39Z</time>
      </trkpt>
      <trkpt lat="50.46129" lon="1.76271">
        <ele>39.3</ele>
        <time>2019-10-06T07:51:44Z</time>
      </trkpt>
      <trkpt lat="50.46133" lon="1.76275">
        <ele>39.4</ele>
        <time>2019-10-06T07:51:47Z</time>
      </trkpt>
      <trkpt lat="50.46137" lon="1.76278">
        <ele>39.4</ele>
        <time>2019-10-06T07:51:50Z</time>
      </trkpt>
      <trkpt lat="50.46142" lon="1.7628">
        <ele>39.5</ele>
        <time>2019-10-06T07:51:55Z</time>
      </trkpt>
      <trkpt lat="50.46146" lon="1.76283">
        <ele>39.5</ele>
        <time>2019-10-06T07:52:01Z</time>
      </trkpt>
      <trkpt lat="50.4615" lon="1.76288">
        <ele>39.4</ele>
        <time>2019-10-06T07:52:06Z</time>
      </trkpt>
      <trkpt lat="50.46155" lon="1.76292">
        <ele>39.3</ele>
        <time>2019-10-06T07:52:11Z</time>
      </trkpt>
      <trkpt lat="50.4616" lon="1.76296">
        <ele>39.1</ele>
        <time>2019-10-06T07:52:16Z</time>
      </trkpt>
      <trkpt lat="50.46164" lon="1.76299">
        <ele>39.3</ele>
        <time>2019-10-06T07:52:21Z</time>
      </trkpt>
      <trkpt lat="50.46168" lon="1.76305">
        <ele>39.9</ele>
        <time>2019-10-06T07:52:27Z</time>
      </trkpt>
      <trkpt lat="50.46169" lon="1.76313">
        <ele>40.5</ele>
        <time>2019-10-06T07:52:33Z</time>
      </trkpt>
      <trkpt lat="50.46169" lon="1.7632">
        <ele>41</ele>
        <time>2019-10-06T07:52:38Z</time>
      </trkpt>
      <trkpt lat="50.46169" lon="1.76328">
        <ele>41.5</ele>
        <time>2019-10-06T07:52:43Z</time>
      </trkpt>
      <trkpt lat="50.46171" lon="1.76336">
        <ele>42.2</ele>
        <time>2019-10-06T07:52:48Z</time>
      </trkpt>
      <trkpt lat="50.46173" lon="1.76343">
        <ele>43.1</ele>
        <time>2019-10-06T07:52:53Z</time>
      </trkpt>
      <trkpt lat="50.46175" lon="1.76351">
        <ele>44.2</ele>
        <time>2019-10-06T07:52:58Z</time>
      </trkpt>
      <trkpt lat="50.46177" lon="1.76359">
        <ele>45.3</ele>
        <time>2019-10-06T07:53:04Z</time>
      </trkpt>
      <trkpt lat="50.4618" lon="1.76366">
        <ele>45.7</ele>
        <time>2019-10-06T07:53:08Z</time>
      </trkpt>
      <trkpt lat="50.46182" lon="1.76373">
        <ele>46.3</ele>
        <time>2019-10-06T07:53:13Z</time>
      </trkpt>
      <trkpt lat="50.46185" lon="1.7638">
        <ele>46.6</ele>
        <time>2019-10-06T07:53:17Z</time>
      </trkpt>
      <trkpt lat="50.46187" lon="1.76388">
        <ele>46.8</ele>
        <time>2019-10-06T07:53:21Z</time>
      </trkpt>
      <trkpt lat="50.46189" lon="1.76396">
        <ele>46.9</ele>
        <time>2019-10-06T07:53:27Z</time>
      </trkpt>
      <trkpt lat="50.46192" lon="1.76401">
        <ele>43.9</ele>
        <time>2019-10-06T07:54:06Z</time>
      </trkpt>
      <trkpt lat="50.4619" lon="1.76394">
        <ele>42</ele>
        <time>2019-10-06T07:54:47Z</time>
      </trkpt>
      <trkpt lat="50.46191" lon="1.76387">
        <ele>42.6</ele>
        <time>2019-10-06T07:54:54Z</time>
      </trkpt>
      <trkpt lat="50.46193" lon="1.76381">
        <ele>44.2</ele>
        <time>2019-10-06T07:55:43Z</time>
      </trkpt>
      <trkpt lat="50.46189" lon="1.76384">
        <ele>44</ele>
        <time>2019-10-06T07:56:10Z</time>
      </trkpt>
      <trkpt lat="50.46193" lon="1.76381">
        <ele>44.6</ele>
        <time>2019-10-06T07:58:46Z</time>
      </trkpt>
      <trkpt lat="50.46197" lon="1.76377">
        <ele>43.5</ele>
        <time>2019-10-06T07:58:51Z</time>
      </trkpt>
      <trkpt lat="50.46202" lon="1.76371">
        <ele>42.5</ele>
        <time>2019-10-06T07:58:56Z</time>
      </trkpt>
      <trkpt lat="50.46206" lon="1.76369">
        <ele>42</ele>
        <time>2019-10-06T07:59:00Z</time>
      </trkpt>
      <trkpt lat="50.4621" lon="1.76365">
        <ele>41</ele>
        <time>2019-10-06T07:59:11Z</time>
      </trkpt>
      <trkpt lat="50.46214" lon="1.76369">
        <ele>40.2</ele>
        <time>2019-10-06T07:59:32Z</time>
      </trkpt>
      <trkpt lat="50.46219" lon="1.76372">
        <ele>39.9</ele>
        <time>2019-10-06T07:59:39Z</time>
      </trkpt>
      <trkpt lat="50.46222" lon="1.76378">
        <ele>38.7</ele>
        <time>2019-10-06T08:00:03Z</time>
      </trkpt>
      <trkpt lat="50.4623" lon="1.76394">
        <ele>40.3</ele>
        <time>2019-10-06T08:01:40Z</time>
      </trkpt>
      <trkpt lat="50.46232" lon="1.764">
        <ele>40.7</ele>
        <time>2019-10-06T08:01:48Z</time>
      </trkpt>
      <trkpt lat="50.46236" lon="1.76406">
        <ele>41.1</ele>
        <time>2019-10-06T08:01:53Z</time>
      </trkpt>
      <trkpt lat="50.46239" lon="1.7641">
        <ele>41.3</ele>
        <time>2019-10-06T08:01:58Z</time>
      </trkpt>
      <trkpt lat="50.46242" lon="1.76416">
        <ele>41.8</ele>
        <time>2019-10-06T08:02:06Z</time>
      </trkpt>
      <trkpt lat="50.46248" lon="1.76423">
        <ele>45.8</ele>
        <time>2019-10-06T08:04:53Z</time>
      </trkpt>
      <trkpt lat="50.46253" lon="1.76421">
        <ele>46.2</ele>
        <time>2019-10-06T08:05:01Z</time>
      </trkpt>
      <trkpt lat="50.46259" lon="1.76418">
        <ele>46.5</ele>
        <time>2019-10-06T08:05:07Z</time>
      </trkpt>
      <trkpt lat="50.46263" lon="1.76414">
        <ele>47.1</ele>
        <time>2019-10-06T08:05:14Z</time>
      </trkpt>
      <trkpt lat="50.4626" lon="1.76409">
        <ele>47</ele>
        <time>2019-10-06T08:05:20Z</time>
      </trkpt>
      <trkpt lat="50.46255" lon="1.76399">
        <ele>44.6</ele>
        <time>2019-10-06T08:06:04Z</time>
      </trkpt>
      <trkpt lat="50.46253" lon="1.76391">
        <ele>43.5</ele>
        <time>2019-10-06T08:06:11Z</time>
      </trkpt>
      <trkpt lat="50.46255" lon="1.76385">
        <ele>42.9</ele>
        <time>2019-10-06T08:06:15Z</time>
      </trkpt>
      <trkpt lat="50.46259" lon="1.76379">
        <ele>42.4</ele>
        <time>2019-10-06T08:06:20Z</time>
      </trkpt>
      <trkpt lat="50.46262" lon="1.76372">
        <ele>42.2</ele>
        <time>2019-10-06T08:06:27Z</time>
      </trkpt>
      <trkpt lat="50.46266" lon="1.76362">
        <ele>42.9</ele>
        <time>2019-10-06T08:06:49Z</time>
      </trkpt>
      <trkpt lat="50.46268" lon="1.76355">
        <ele>43.7</ele>
        <time>2019-10-06T08:07:04Z</time>
      </trkpt>
      <trkpt lat="50.46271" lon="1.76349">
        <ele>44.1</ele>
        <time>2019-10-06T08:07:15Z</time>
      </trkpt>
      <trkpt lat="50.46275" lon="1.76346">
        <ele>44.4</ele>
        <time>2019-10-06T08:07:25Z</time>
      </trkpt>
      <trkpt lat="50.4628" lon="1.76348">
        <ele>44.8</ele>
        <time>2019-10-06T08:07:31Z</time>
      </trkpt>
      <trkpt lat="50.46286" lon="1.76349">
        <ele>46.5</ele>
        <time>2019-10-06T08:07:44Z</time>
      </trkpt>
      <trkpt lat="50.46291" lon="1.76348">
        <ele>47</ele>
        <time>2019-10-06T08:07:47Z</time>
      </trkpt>
      <trkpt lat="50.46303" lon="1.76348">
        <ele>47.2</ele>
        <time>2019-10-06T08:08:36Z</time>
      </trkpt>
      <trkpt lat="50.46307" lon="1.76344">
        <ele>47.1</ele>
        <time>2019-10-06T08:08:42Z</time>
      </trkpt>
      <trkpt lat="50.4631" lon="1.76339">
        <ele>47</ele>
        <time>2019-10-06T08:08:49Z</time>
      </trkpt>
      <trkpt lat="50.46311" lon="1.7633">
        <ele>47</ele>
        <time>2019-10-06T08:08:55Z</time>
      </trkpt>
      <trkpt lat="50.46312" lon="1.76323">
        <ele>47</ele>
        <time>2019-10-06T08:09:02Z</time>
      </trkpt>
      <trkpt lat="50.46313" lon="1.76316">
        <ele>46.8</ele>
        <time>2019-10-06T08:09:07Z</time>
      </trkpt>
      <trkpt lat="50.46315" lon="1.76309">
        <ele>46.9</ele>
        <time>2019-10-06T08:09:14Z</time>
      </trkpt>
      <trkpt lat="50.46318" lon="1.76301">
        <ele>47</ele>
        <time>2019-10-06T08:09:19Z</time>
      </trkpt>
      <trkpt lat="50.46319" lon="1.76293">
        <ele>47.1</ele>
        <time>2019-10-06T08:09:24Z</time>
      </trkpt>
      <trkpt lat="50.4632" lon="1.76285">
        <ele>47.4</ele>
        <time>2019-10-06T08:09:31Z</time>
      </trkpt>
      <trkpt lat="50.46322" lon="1.76277">
        <ele>47.4</ele>
        <time>2019-10-06T08:09:36Z</time>
      </trkpt>
      <trkpt lat="50.46323" lon="1.7627">
        <ele>47.6</ele>
        <time>2019-10-06T08:09:45Z</time>
      </trkpt>
      <trkpt lat="50.46323" lon="1.76263">
        <ele>46.9</ele>
        <time>2019-10-06T08:10:26Z</time>
      </trkpt>
      <trkpt lat="50.46328" lon="1.76258">
        <ele>46.8</ele>
        <time>2019-10-06T08:10:31Z</time>
      </trkpt>
      <trkpt lat="50.46332" lon="1.76253">
        <ele>46.8</ele>
        <time>2019-10-06T08:10:37Z</time>
      </trkpt>
      <trkpt lat="50.46334" lon="1.76247">
        <ele>47</ele>
        <time>2019-10-06T08:10:42Z</time>
      </trkpt>
      <trkpt lat="50.46337" lon="1.7624">
        <ele>47.2</ele>
        <time>2019-10-06T08:10:46Z</time>
      </trkpt>
      <trkpt lat="50.46341" lon="1.76234">
        <ele>47.5</ele>
        <time>2019-10-06T08:10:51Z</time>
      </trkpt>
      <trkpt lat="50.46343" lon="1.76227">
        <ele>47.7</ele>
        <time>2019-10-06T08:10:58Z</time>
      </trkpt>
      <trkpt lat="50.46349" lon="1.7622">
        <ele>47.7</ele>
        <time>2019-10-06T08:11:38Z</time>
      </trkpt>
      <trkpt lat="50.46349" lon="1.76227">
        <ele>48.2</ele>
        <time>2019-10-06T08:12:01Z</time>
      </trkpt>
      <trkpt lat="50.46347" lon="1.76221">
        <ele>47.9</ele>
        <time>2019-10-06T08:13:09Z</time>
      </trkpt>
      <trkpt lat="50.46351" lon="1.76219">
        <ele>50.4</ele>
        <time>2019-10-06T08:13:45Z</time>
      </trkpt>
      <trkpt lat="50.46362" lon="1.76218">
        <ele>53.7</ele>
        <time>2019-10-06T08:14:18Z</time>
      </trkpt>
      <trkpt lat="50.46365" lon="1.76224">
        <ele>53.4</ele>
        <time>2019-10-06T08:14:23Z</time>
      </trkpt>
      <trkpt lat="50.46385" lon="1.7625">
        <ele>52</ele>
        <time>2019-10-06T08:15:36Z</time>
      </trkpt>
      <trkpt lat="50.46387" lon="1.76257">
        <ele>51.9</ele>
        <time>2019-10-06T08:15:39Z</time>
      </trkpt>
      <trkpt lat="50.46388" lon="1.76264">
        <ele>52.1</ele>
        <time>2019-10-06T08:15:48Z</time>
      </trkpt>
      <trkpt lat="50.46393" lon="1.76274">
        <ele>51.1</ele>
        <time>2019-10-06T08:17:00Z</time>
      </trkpt>
      <trkpt lat="50.46396" lon="1.76278">
        <ele>51.6</ele>
        <time>2019-10-06T08:17:09Z</time>
      </trkpt>
      <trkpt lat="50.46401" lon="1.76277">
        <ele>52.7</ele>
        <time>2019-10-06T08:17:37Z</time>
      </trkpt>
      <trkpt lat="50.46404" lon="1.76284">
        <ele>52.3</ele>
        <time>2019-10-06T08:17:49Z</time>
      </trkpt>
      <trkpt lat="50.46407" lon="1.76289">
        <ele>51.2</ele>
        <time>2019-10-06T08:17:57Z</time>
      </trkpt>
      <trkpt lat="50.46394" lon="1.76268">
        <ele>100.3</ele>
        <time>2019-10-06T08:37:00Z</time>
      </trkpt>
      <trkpt lat="50.46399" lon="1.7628">
        <ele>99</ele>
        <time>2019-10-06T08:37:02Z</time>
      </trkpt>
      <trkpt lat="50.46406" lon="1.76301">
        <ele>90.8</ele>
        <time>2019-10-06T08:37:14Z</time>
      </trkpt>
      <trkpt lat="50.4641" lon="1.76308">
        <ele>86.4</ele>
        <time>2019-10-06T08:37:21Z</time>
      </trkpt>
      <trkpt lat="50.46412" lon="1.76314">
        <ele>82.2</ele>
        <time>2019-10-06T08:37:29Z</time>
      </trkpt>
      <trkpt lat="50.46416" lon="1.7632">
        <ele>73.1</ele>
        <time>2019-10-06T08:37:51Z</time>
      </trkpt>
      <trkpt lat="50.46418" lon="1.76326">
        <ele>71.8</ele>
        <time>2019-10-06T08:37:54Z</time>
      </trkpt>
      <trkpt lat="50.46421" lon="1.76332">
        <ele>69.1</ele>
        <time>2019-10-06T08:38:00Z</time>
      </trkpt>
      <trkpt lat="50.46425" lon="1.76337">
        <ele>57</ele>
        <time>2019-10-06T08:39:49Z</time>
      </trkpt>
      <trkpt lat="50.46426" lon="1.76345">
        <ele>55.2</ele>
        <time>2019-10-06T08:39:56Z</time>
      </trkpt>
      <trkpt lat="50.46429" lon="1.76351">
        <ele>54</ele>
        <time>2019-10-06T08:40:00Z</time>
      </trkpt>
      <trkpt lat="50.46432" lon="1.76356">
        <ele>52.1</ele>
        <time>2019-10-06T08:40:06Z</time>
      </trkpt>
      <trkpt lat="50.46434" lon="1.76364">
        <ele>49.4</ele>
        <time>2019-10-06T08:40:13Z</time>
      </trkpt>
      <trkpt lat="50.46436" lon="1.7637">
        <ele>45.9</ele>
        <time>2019-10-06T08:40:23Z</time>
      </trkpt>
      <trkpt lat="50.46437" lon="1.76377">
        <ele>43.2</ele>
        <time>2019-10-06T08:41:05Z</time>
      </trkpt>
      <trkpt lat="50.4644" lon="1.76383">
        <ele>42.6</ele>
        <time>2019-10-06T08:41:15Z</time>
      </trkpt>
      <trkpt lat="50.46444" lon="1.76388">
        <ele>42</ele>
        <time>2019-10-06T08:41:20Z</time>
      </trkpt>
      <trkpt lat="50.46448" lon="1.76392">
        <ele>41.9</ele>
        <time>2019-10-06T08:41:24Z</time>
      </trkpt>
      <trkpt lat="50.46452" lon="1.76398">
        <ele>42.5</ele>
        <time>2019-10-06T08:41:29Z</time>
      </trkpt>
      <trkpt lat="50.46454" lon="1.76404">
        <ele>43.4</ele>
        <time>2019-10-06T08:41:35Z</time>
      </trkpt>
      <trkpt lat="50.46457" lon="1.7641">
        <ele>44.1</ele>
        <time>2019-10-06T08:41:40Z</time>
      </trkpt>
      <trkpt lat="50.46461" lon="1.76415">
        <ele>44.7</ele>
        <time>2019-10-06T08:41:48Z</time>
      </trkpt>
      <trkpt lat="50.46471" lon="1.76421">
        <ele>47.1</ele>
        <time>2019-10-06T08:42:08Z</time>
      </trkpt>
      <trkpt lat="50.46482" lon="1.76423">
        <ele>49.5</ele>
        <time>2019-10-06T08:42:27Z</time>
      </trkpt>
      <trkpt lat="50.46501" lon="1.76431">
        <ele>47.3</ele>
        <time>2019-10-06T08:44:02Z</time>
      </trkpt>
      <trkpt lat="50.46504" lon="1.76437">
        <ele>46.1</ele>
        <time>2019-10-06T08:44:08Z</time>
      </trkpt>
      <trkpt lat="50.46505" lon="1.76444">
        <ele>45.3</ele>
        <time>2019-10-06T08:44:13Z</time>
      </trkpt>
      <trkpt lat="50.46502" lon="1.76457">
        <ele>44.2</ele>
        <time>2019-10-06T08:49:14Z</time>
      </trkpt>
      <trkpt lat="50.465" lon="1.76464">
        <ele>43.9</ele>
        <time>2019-10-06T08:49:18Z</time>
      </trkpt>
      <trkpt lat="50.46505" lon="1.76464">
        <ele>44.6</ele>
        <time>2019-10-06T08:49:33Z</time>
      </trkpt>
      <trkpt lat="50.46507" lon="1.76456">
        <ele>45.1</ele>
        <time>2019-10-06T08:49:39Z</time>
      </trkpt>
      <trkpt lat="50.4651" lon="1.76451">
        <ele>45.6</ele>
        <time>2019-10-06T08:49:45Z</time>
      </trkpt>
      <trkpt lat="50.46515" lon="1.76446">
        <ele>45.6</ele>
        <time>2019-10-06T08:49:51Z</time>
      </trkpt>
      <trkpt lat="50.46517" lon="1.7644">
        <ele>45.8</ele>
        <time>2019-10-06T08:49:55Z</time>
      </trkpt>
      <trkpt lat="50.46519" lon="1.76433">
        <ele>46.2</ele>
        <time>2019-10-06T08:50:02Z</time>
      </trkpt>
      <trkpt lat="50.46529" lon="1.76426">
        <ele>47.4</ele>
        <time>2019-10-06T08:54:21Z</time>
      </trkpt>
      <trkpt lat="50.46534" lon="1.76427">
        <ele>46.2</ele>
        <time>2019-10-06T08:54:36Z</time>
      </trkpt>
      <trkpt lat="50.46539" lon="1.76426">
        <ele>44.9</ele>
        <time>2019-10-06T08:54:46Z</time>
      </trkpt>
      <trkpt lat="50.46553" lon="1.76427">
        <ele>43.6</ele>
        <time>2019-10-06T08:54:59Z</time>
      </trkpt>
      <trkpt lat="50.46559" lon="1.76428">
        <ele>43.8</ele>
        <time>2019-10-06T08:55:05Z</time>
      </trkpt>
      <trkpt lat="50.46569" lon="1.76433">
        <ele>45.1</ele>
        <time>2019-10-06T08:55:18Z</time>
      </trkpt>
      <trkpt lat="50.46574" lon="1.76436">
        <ele>45.2</ele>
        <time>2019-10-06T08:55:23Z</time>
      </trkpt>
      <trkpt lat="50.46579" lon="1.76435">
        <ele>45.2</ele>
        <time>2019-10-06T08:55:32Z</time>
      </trkpt>
      <trkpt lat="50.46582" lon="1.76431">
        <ele>43.4</ele>
        <time>2019-10-06T08:56:02Z</time>
      </trkpt>
      <trkpt lat="50.46587" lon="1.76433">
        <ele>41.2</ele>
        <time>2019-10-06T08:56:10Z</time>
      </trkpt>
      <trkpt lat="50.46591" lon="1.76433">
        <ele>39.4</ele>
        <time>2019-10-06T08:56:20Z</time>
      </trkpt>
      <trkpt lat="50.46596" lon="1.76435">
        <ele>38.7</ele>
        <time>2019-10-06T08:56:32Z</time>
      </trkpt>
      <trkpt lat="50.46601" lon="1.76435">
        <ele>38.3</ele>
        <time>2019-10-06T08:56:39Z</time>
      </trkpt>
      <trkpt lat="50.46606" lon="1.76438">
        <ele>37.5</ele>
        <time>2019-10-06T08:56:45Z</time>
      </trkpt>
      <trkpt lat="50.4661" lon="1.7644">
        <ele>36.8</ele>
        <time>2019-10-06T08:56:50Z</time>
      </trkpt>
      <trkpt lat="50.46614" lon="1.76443">
        <ele>35.5</ele>
        <time>2019-10-06T08:57:00Z</time>
      </trkpt>
      <trkpt lat="50.46618" lon="1.76447">
        <ele>35.3</ele>
        <time>2019-10-06T08:57:09Z</time>
      </trkpt>
      <trkpt lat="50.46623" lon="1.7645">
        <ele>35.8</ele>
        <time>2019-10-06T08:57:15Z</time>
      </trkpt>
      <trkpt lat="50.46627" lon="1.76454">
        <ele>36.8</ele>
        <time>2019-10-06T08:57:30Z</time>
      </trkpt>
      <trkpt lat="50.46631" lon="1.76455">
        <ele>35.1</ele>
        <time>2019-10-06T08:57:45Z</time>
      </trkpt>
      <trkpt lat="50.46635" lon="1.76458">
        <ele>31</ele>
        <time>2019-10-06T08:58:18Z</time>
      </trkpt>
      <trkpt lat="50.46636" lon="1.76465">
        <ele>30.6</ele>
        <time>2019-10-06T08:58:24Z</time>
      </trkpt>
      <trkpt lat="50.46636" lon="1.76472">
        <ele>30.2</ele>
        <time>2019-10-06T08:58:31Z</time>
      </trkpt>
      <trkpt lat="50.46636" lon="1.7648">
        <ele>29.4</ele>
        <time>2019-10-06T08:58:42Z</time>
      </trkpt>
      <trkpt lat="50.46634" lon="1.76487">
        <ele>29.5</ele>
        <time>2019-10-06T08:58:51Z</time>
      </trkpt>
      <trkpt lat="50.46633" lon="1.76494">
        <ele>29.9</ele>
        <time>2019-10-06T08:58:59Z</time>
      </trkpt>
      <trkpt lat="50.4663" lon="1.76501">
        <ele>30.8</ele>
        <time>2019-10-06T08:59:09Z</time>
      </trkpt>
      <trkpt lat="50.46627" lon="1.76506">
        <ele>31.3</ele>
        <time>2019-10-06T08:59:15Z</time>
      </trkpt>
      <trkpt lat="50.46627" lon="1.76515">
        <ele>31.6</ele>
        <time>2019-10-06T08:59:22Z</time>
      </trkpt>
      <trkpt lat="50.46628" lon="1.76523">
        <ele>31.7</ele>
        <time>2019-10-06T08:59:26Z</time>
      </trkpt>
      <trkpt lat="50.4663" lon="1.7653">
        <ele>31.8</ele>
        <time>2019-10-06T08:59:30Z</time>
      </trkpt>
      <trkpt lat="50.46632" lon="1.76536">
        <ele>31.9</ele>
        <time>2019-10-06T08:59:34Z</time>
      </trkpt>
      <trkpt lat="50.46632" lon="1.76544">
        <ele>32.1</ele>
        <time>2019-10-06T08:59:40Z</time>
      </trkpt>
      <trkpt lat="50.46631" lon="1.76552">
        <ele>32.4</ele>
        <time>2019-10-06T08:59:45Z</time>
      </trkpt>
      <trkpt lat="50.46634" lon="1.76558">
        <ele>32.9</ele>
        <time>2019-10-06T08:59:52Z</time>
      </trkpt>
      <trkpt lat="50.46638" lon="1.76561">
        <ele>33.1</ele>
        <time>2019-10-06T08:59:57Z</time>
      </trkpt>
      <trkpt lat="50.46643" lon="1.76561">
        <ele>33.5</ele>
        <time>2019-10-06T09:00:09Z</time>
      </trkpt>
      <trkpt lat="50.46645" lon="1.76554">
        <ele>38.9</ele>
        <time>2019-10-06T09:00:52Z</time>
      </trkpt>
      <trkpt lat="50.46648" lon="1.76533">
        <ele>30.2</ele>
        <time>2019-10-06T09:05:19Z</time>
      </trkpt>
      <trkpt lat="50.46649" lon="1.76526">
        <ele>28.5</ele>
        <time>2019-10-06T09:05:25Z</time>
      </trkpt>
      <trkpt lat="50.46649" lon="1.76518">
        <ele>27.6</ele>
        <time>2019-10-06T09:05:30Z</time>
      </trkpt>
      <trkpt lat="50.46648" lon="1.76512">
        <ele>27.1</ele>
        <time>2019-10-06T09:05:34Z</time>
      </trkpt>
      <trkpt lat="50.46647" lon="1.76505">
        <ele>26.8</ele>
        <time>2019-10-06T09:05:38Z</time>
      </trkpt>
      <trkpt lat="50.46646" lon="1.76497">
        <ele>26.9</ele>
        <time>2019-10-06T09:05:43Z</time>
      </trkpt>
      <trkpt lat="50.46647" lon="1.76489">
        <ele>27.3</ele>
        <time>2019-10-06T09:05:48Z</time>
      </trkpt>
      <trkpt lat="50.4665" lon="1.76482">
        <ele>27.6</ele>
        <time>2019-10-06T09:05:52Z</time>
      </trkpt>
      <trkpt lat="50.46651" lon="1.76475">
        <ele>29</ele>
        <time>2019-10-06T09:06:11Z</time>
      </trkpt>
      <trkpt lat="50.46654" lon="1.76467">
        <ele>29.3</ele>
        <time>2019-10-06T09:06:17Z</time>
      </trkpt>
      <trkpt lat="50.46657" lon="1.76461">
        <ele>29.4</ele>
        <time>2019-10-06T09:06:23Z</time>
      </trkpt>
      <trkpt lat="50.46659" lon="1.76454">
        <ele>29.5</ele>
        <time>2019-10-06T09:06:31Z</time>
      </trkpt>
      <trkpt lat="50.46659" lon="1.76447">
        <ele>30.4</ele>
        <time>2019-10-06T09:06:40Z</time>
      </trkpt>
      <trkpt lat="50.46661" lon="1.76439">
        <ele>31.3</ele>
        <time>2019-10-06T09:06:48Z</time>
      </trkpt>
      <trkpt lat="50.46662" lon="1.76432">
        <ele>31.8</ele>
        <time>2019-10-06T09:06:55Z</time>
      </trkpt>
      <trkpt lat="50.46665" lon="1.76426">
        <ele>32.1</ele>
        <time>2019-10-06T09:07:02Z</time>
      </trkpt>
      <trkpt lat="50.46667" lon="1.76419">
        <ele>32.3</ele>
        <time>2019-10-06T09:07:09Z</time>
      </trkpt>
      <trkpt lat="50.46671" lon="1.76413">
        <ele>33</ele>
        <time>2019-10-06T09:07:15Z</time>
      </trkpt>
      <trkpt lat="50.46674" lon="1.76406">
        <ele>33.2</ele>
        <time>2019-10-06T09:07:23Z</time>
      </trkpt>
      <trkpt lat="50.46676" lon="1.764">
        <ele>32.9</ele>
        <time>2019-10-06T09:07:28Z</time>
      </trkpt>
      <trkpt lat="50.46677" lon="1.76392">
        <ele>31.7</ele>
        <time>2019-10-06T09:07:35Z</time>
      </trkpt>
      <trkpt lat="50.46677" lon="1.76385">
        <ele>29.9</ele>
        <time>2019-10-06T09:07:42Z</time>
      </trkpt>
      <trkpt lat="50.4668" lon="1.76378">
        <ele>27.9</ele>
        <time>2019-10-06T09:07:50Z</time>
      </trkpt>
      <trkpt lat="50.46683" lon="1.76373">
        <ele>26.6</ele>
        <time>2019-10-06T09:07:57Z</time>
      </trkpt>
      <trkpt lat="50.46685" lon="1.76366">
        <ele>25.2</ele>
        <time>2019-10-06T09:08:03Z</time>
      </trkpt>
      <trkpt lat="50.46688" lon="1.7636">
        <ele>20.8</ele>
        <time>2019-10-06T09:08:19Z</time>
      </trkpt>
      <trkpt lat="50.46688" lon="1.76352">
        <ele>18.1</ele>
        <time>2019-10-06T09:08:26Z</time>
      </trkpt>
      <trkpt lat="50.4669" lon="1.76345">
        <ele>17.1</ele>
        <time>2019-10-06T09:08:31Z</time>
      </trkpt>
      <trkpt lat="50.46692" lon="1.76338">
        <ele>16.7</ele>
        <time>2019-10-06T09:08:39Z</time>
      </trkpt>
      <trkpt lat="50.46694" lon="1.76331">
        <ele>17.8</ele>
        <time>2019-10-06T09:08:48Z</time>
      </trkpt>
      <trkpt lat="50.46697" lon="1.76326">
        <ele>18.4</ele>
        <time>2019-10-06T09:08:53Z</time>
      </trkpt>
      <trkpt lat="50.467" lon="1.7632">
        <ele>19.3</ele>
        <time>2019-10-06T09:08:59Z</time>
      </trkpt>
      <trkpt lat="50.46702" lon="1.76312">
        <ele>21.2</ele>
        <time>2019-10-06T09:09:09Z</time>
      </trkpt>
      <trkpt lat="50.46705" lon="1.76307">
        <ele>22.5</ele>
        <time>2019-10-06T09:09:16Z</time>
      </trkpt>
      <trkpt lat="50.46705" lon="1.76299">
        <ele>23.5</ele>
        <time>2019-10-06T09:09:21Z</time>
      </trkpt>
      <trkpt lat="50.46707" lon="1.76291">
        <ele>24.8</ele>
        <time>2019-10-06T09:09:28Z</time>
      </trkpt>
      <trkpt lat="50.46708" lon="1.76284">
        <ele>26.1</ele>
        <time>2019-10-06T09:09:35Z</time>
      </trkpt>
      <trkpt lat="50.4671" lon="1.76277">
        <ele>27.9</ele>
        <time>2019-10-06T09:09:46Z</time>
      </trkpt>
      <trkpt lat="50.46713" lon="1.76271">
        <ele>29.1</ele>
        <time>2019-10-06T09:09:54Z</time>
      </trkpt>
      <trkpt lat="50.46713" lon="1.76263">
        <ele>30</ele>
        <time>2019-10-06T09:10:00Z</time>
      </trkpt>
      <trkpt lat="50.46714" lon="1.76255">
        <ele>30.9</ele>
        <time>2019-10-06T09:10:07Z</time>
      </trkpt>
      <trkpt lat="50.46716" lon="1.76248">
        <ele>32.1</ele>
        <time>2019-10-06T09:10:15Z</time>
      </trkpt>
      <trkpt lat="50.46718" lon="1.76242">
        <ele>37.8</ele>
        <time>2019-10-06T09:10:55Z</time>
      </trkpt>
      <trkpt lat="50.46714" lon="1.76239">
        <ele>39</ele>
        <time>2019-10-06T09:11:03Z</time>
      </trkpt>
      <trkpt lat="50.4671" lon="1.76235">
        <ele>39.6</ele>
        <time>2019-10-06T09:11:13Z</time>
      </trkpt>
      <trkpt lat="50.4671" lon="1.76227">
        <ele>40</ele>
        <time>2019-10-06T09:11:31Z</time>
      </trkpt>
      <trkpt lat="50.46709" lon="1.7622">
        <ele>40.7</ele>
        <time>2019-10-06T09:11:40Z</time>
      </trkpt>
      <trkpt lat="50.46711" lon="1.76213">
        <ele>41.2</ele>
        <time>2019-10-06T09:11:47Z</time>
      </trkpt>
      <trkpt lat="50.4671" lon="1.76205">
        <ele>41.6</ele>
        <time>2019-10-06T09:11:52Z</time>
      </trkpt>
      <trkpt lat="50.4671" lon="1.76197">
        <ele>41.9</ele>
        <time>2019-10-06T09:11:55Z</time>
      </trkpt>
      <trkpt lat="50.4671" lon="1.76189">
        <ele>42.2</ele>
        <time>2019-10-06T09:11:58Z</time>
      </trkpt>
      <trkpt lat="50.4671" lon="1.76182">
        <ele>42.5</ele>
        <time>2019-10-06T09:12:05Z</time>
      </trkpt>
      <trkpt lat="50.46708" lon="1.76175">
        <ele>42.4</ele>
        <time>2019-10-06T09:12:13Z</time>
      </trkpt>
      <trkpt lat="50.46706" lon="1.76169">
        <ele>43.1</ele>
        <time>2019-10-06T09:12:23Z</time>
      </trkpt>
      <trkpt lat="50.46702" lon="1.76163">
        <ele>43.8</ele>
        <time>2019-10-06T09:12:30Z</time>
      </trkpt>
      <trkpt lat="50.46699" lon="1.76158">
        <ele>44.7</ele>
        <time>2019-10-06T09:12:38Z</time>
      </trkpt>
      <trkpt lat="50.46701" lon="1.76151">
        <ele>45.2</ele>
        <time>2019-10-06T09:12:55Z</time>
      </trkpt>
      <trkpt lat="50.467" lon="1.76143">
        <ele>45.6</ele>
        <time>2019-10-06T09:13:10Z</time>
      </trkpt>
      <trkpt lat="50.46695" lon="1.76141">
        <ele>45.7</ele>
        <time>2019-10-06T09:13:17Z</time>
      </trkpt>
      <trkpt lat="50.46691" lon="1.76141">
        <ele>45.7</ele>
        <time>2019-10-06T09:13:21Z</time>
      </trkpt>
      <trkpt lat="50.46685" lon="1.76141">
        <ele>45.9</ele>
        <time>2019-10-06T09:13:25Z</time>
      </trkpt>
      <trkpt lat="50.46681" lon="1.76139">
        <ele>46.1</ele>
        <time>2019-10-06T09:13:30Z</time>
      </trkpt>
      <trkpt lat="50.46676" lon="1.76136">
        <ele>46.4</ele>
        <time>2019-10-06T09:13:35Z</time>
      </trkpt>
      <trkpt lat="50.46672" lon="1.76131">
        <ele>46.5</ele>
        <time>2019-10-06T09:13:43Z</time>
      </trkpt>
      <trkpt lat="50.46667" lon="1.76127">
        <ele>46.5</ele>
        <time>2019-10-06T09:13:50Z</time>
      </trkpt>
      <trkpt lat="50.46662" lon="1.76124">
        <ele>46.5</ele>
        <time>2019-10-06T09:13:54Z</time>
      </trkpt>
      <trkpt lat="50.46657" lon="1.7612">
        <ele>46.6</ele>
        <time>2019-10-06T09:13:58Z</time>
      </trkpt>
      <trkpt lat="50.46653" lon="1.76116">
        <ele>46.7</ele>
        <time>2019-10-06T09:14:01Z</time>
      </trkpt>
      <trkpt lat="50.46649" lon="1.76112">
        <ele>46.9</ele>
        <time>2019-10-06T09:14:08Z</time>
      </trkpt>
      <trkpt lat="50.46645" lon="1.7611">
        <ele>48.9</ele>
        <time>2019-10-06T09:14:41Z</time>
      </trkpt>
      <trkpt lat="50.4664" lon="1.76108">
        <ele>49.2</ele>
        <time>2019-10-06T09:15:00Z</time>
      </trkpt>
      <trkpt lat="50.46635" lon="1.76109">
        <ele>49.5</ele>
        <time>2019-10-06T09:15:08Z</time>
      </trkpt>
      <trkpt lat="50.46631" lon="1.76108">
        <ele>50.4</ele>
        <time>2019-10-06T09:15:24Z</time>
      </trkpt>
      <trkpt lat="50.46627" lon="1.76104">
        <ele>50.2</ele>
        <time>2019-10-06T09:15:33Z</time>
      </trkpt>
      <trkpt lat="50.46622" lon="1.76101">
        <ele>48.9</ele>
        <time>2019-10-06T09:15:44Z</time>
      </trkpt>
      <trkpt lat="50.46618" lon="1.76098">
        <ele>48.4</ele>
        <time>2019-10-06T09:15:48Z</time>
      </trkpt>
      <trkpt lat="50.46615" lon="1.76093">
        <ele>47.8</ele>
        <time>2019-10-06T09:15:55Z</time>
      </trkpt>
      <trkpt lat="50.46617" lon="1.76086">
        <ele>45.5</ele>
        <time>2019-10-06T09:16:21Z</time>
      </trkpt>
      <trkpt lat="50.46616" lon="1.76079">
        <ele>45</ele>
        <time>2019-10-06T09:16:28Z</time>
      </trkpt>
      <trkpt lat="50.46616" lon="1.76072">
        <ele>44.2</ele>
        <time>2019-10-06T09:16:38Z</time>
      </trkpt>
      <trkpt lat="50.46615" lon="1.76064">
        <ele>43.9</ele>
        <time>2019-10-06T09:16:44Z</time>
      </trkpt>
      <trkpt lat="50.46612" lon="1.76058">
        <ele>43.8</ele>
        <time>2019-10-06T09:16:50Z</time>
      </trkpt>
      <trkpt lat="50.46611" lon="1.76052">
        <ele>44.3</ele>
        <time>2019-10-06T09:16:56Z</time>
      </trkpt>
      <trkpt lat="50.46609" lon="1.76045">
        <ele>45</ele>
        <time>2019-10-06T09:17:02Z</time>
      </trkpt>
      <trkpt lat="50.46609" lon="1.76038">
        <ele>45.4</ele>
        <time>2019-10-06T09:17:10Z</time>
      </trkpt>
      <trkpt lat="50.46605" lon="1.76033">
        <ele>45.9</ele>
        <time>2019-10-06T09:17:20Z</time>
      </trkpt>
      <trkpt lat="50.46603" lon="1.76027">
        <ele>46.3</ele>
        <time>2019-10-06T09:17:29Z</time>
      </trkpt>
      <trkpt lat="50.46602" lon="1.76019">
        <ele>46.8</ele>
        <time>2019-10-06T09:17:39Z</time>
      </trkpt>
      <trkpt lat="50.46602" lon="1.76011">
        <ele>47.1</ele>
        <time>2019-10-06T09:17:44Z</time>
      </trkpt>
      <trkpt lat="50.46602" lon="1.76019">
        <ele>47.7</ele>
        <time>2019-10-06T09:18:01Z</time>
      </trkpt>
      <trkpt lat="50.46606" lon="1.76025">
        <ele>47.8</ele>
        <time>2019-10-06T09:18:07Z</time>
      </trkpt>
      <trkpt lat="50.46609" lon="1.7602">
        <ele>46.7</ele>
        <time>2019-10-06T09:20:51Z</time>
      </trkpt>
      <trkpt lat="50.46607" lon="1.76013">
        <ele>45.5</ele>
        <time>2019-10-06T09:23:25Z</time>
      </trkpt>
      <trkpt lat="50.46605" lon="1.76008">
        <ele>45.5</ele>
        <time>2019-10-06T09:23:33Z</time>
      </trkpt>
      <trkpt lat="50.46602" lon="1.76013">
        <ele>44.2</ele>
        <time>2019-10-06T09:24:13Z</time>
      </trkpt>
      <trkpt lat="50.46604" lon="1.76019">
        <ele>42.3</ele>
        <time>2019-10-06T09:25:24Z</time>
      </trkpt>
      <trkpt lat="50.46608" lon="1.76023">
        <ele>44.9</ele>
        <time>2019-10-06T09:26:06Z</time>
      </trkpt>
      <trkpt lat="50.46609" lon="1.76015">
        <ele>47.9</ele>
        <time>2019-10-06T09:29:33Z</time>
      </trkpt>
      <trkpt lat="50.46612" lon="1.7601">
        <ele>47.7</ele>
        <time>2019-10-06T09:29:38Z</time>
      </trkpt>
      <trkpt lat="50.4661" lon="1.76017">
        <ele>46.3</ele>
        <time>2019-10-06T09:30:06Z</time>
      </trkpt>
      <trkpt lat="50.46606" lon="1.76016">
        <ele>45.8</ele>
        <time>2019-10-06T09:30:35Z</time>
      </trkpt>
      <trkpt lat="50.46608" lon="1.76023">
        <ele>46.1</ele>
        <time>2019-10-06T09:34:10Z</time>
      </trkpt>
      <trkpt lat="50.46614" lon="1.76023">
        <ele>45.8</ele>
        <time>2019-10-06T09:34:15Z</time>
      </trkpt>
      <trkpt lat="50.46619" lon="1.76024">
        <ele>45.5</ele>
        <time>2019-10-06T09:34:19Z</time>
      </trkpt>
      <trkpt lat="50.46624" lon="1.76026">
        <ele>45.2</ele>
        <time>2019-10-06T09:34:24Z</time>
      </trkpt>
      <trkpt lat="50.46629" lon="1.76026">
        <ele>45.1</ele>
        <time>2019-10-06T09:34:29Z</time>
      </trkpt>
      <trkpt lat="50.46634" lon="1.76028">
        <ele>45.2</ele>
        <time>2019-10-06T09:34:34Z</time>
      </trkpt>
      <trkpt lat="50.4664" lon="1.76029">
        <ele>45.3</ele>
        <time>2019-10-06T09:34:38Z</time>
      </trkpt>
      <trkpt lat="50.46644" lon="1.76029">
        <ele>45.3</ele>
        <time>2019-10-06T09:34:42Z</time>
      </trkpt>
      <trkpt lat="50.46649" lon="1.76031">
        <ele>45.3</ele>
        <time>2019-10-06T09:34:48Z</time>
      </trkpt>
      <trkpt lat="50.46654" lon="1.76033">
        <ele>45.2</ele>
        <time>2019-10-06T09:34:54Z</time>
      </trkpt>
      <trkpt lat="50.4666" lon="1.76036">
        <ele>45.2</ele>
        <time>2019-10-06T09:34:58Z</time>
      </trkpt>
      <trkpt lat="50.46665" lon="1.76039">
        <ele>45.1</ele>
        <time>2019-10-06T09:35:03Z</time>
      </trkpt>
      <trkpt lat="50.4667" lon="1.76041">
        <ele>45.1</ele>
        <time>2019-10-06T09:35:07Z</time>
      </trkpt>
      <trkpt lat="50.46675" lon="1.76043">
        <ele>45.1</ele>
        <time>2019-10-06T09:35:12Z</time>
      </trkpt>
      <trkpt lat="50.46679" lon="1.76045">
        <ele>45.1</ele>
        <time>2019-10-06T09:35:17Z</time>
      </trkpt>
      <trkpt lat="50.46684" lon="1.76045">
        <ele>45.3</ele>
        <time>2019-10-06T09:35:33Z</time>
      </trkpt>
      <trkpt lat="50.46687" lon="1.76051">
        <ele>45.1</ele>
        <time>2019-10-06T09:35:41Z</time>
      </trkpt>
      <trkpt lat="50.46689" lon="1.76058">
        <ele>44.9</ele>
        <time>2019-10-06T09:35:47Z</time>
      </trkpt>
      <trkpt lat="50.46692" lon="1.76065">
        <ele>44.7</ele>
        <time>2019-10-06T09:35:51Z</time>
      </trkpt>
      <trkpt lat="50.46697" lon="1.76083">
        <ele>44.4</ele>
        <time>2019-10-06T09:36:01Z</time>
      </trkpt>
      <trkpt lat="50.46699" lon="1.7609">
        <ele>44.2</ele>
        <time>2019-10-06T09:36:07Z</time>
      </trkpt>
      <trkpt lat="50.46702" lon="1.76096">
        <ele>43.7</ele>
        <time>2019-10-06T09:36:15Z</time>
      </trkpt>
      <trkpt lat="50.46705" lon="1.76103">
        <ele>43.2</ele>
        <time>2019-10-06T09:36:20Z</time>
      </trkpt>
      <trkpt lat="50.46707" lon="1.76109">
        <ele>42.9</ele>
        <time>2019-10-06T09:36:24Z</time>
      </trkpt>
      <trkpt lat="50.4671" lon="1.76116">
        <ele>42.7</ele>
        <time>2019-10-06T09:36:28Z</time>
      </trkpt>
      <trkpt lat="50.46712" lon="1.76123">
        <ele>42.6</ele>
        <time>2019-10-06T09:36:32Z</time>
      </trkpt>
      <trkpt lat="50.46714" lon="1.7613">
        <ele>42.4</ele>
        <time>2019-10-06T09:36:36Z</time>
      </trkpt>
      <trkpt lat="50.46715" lon="1.76137">
        <ele>42.3</ele>
        <time>2019-10-06T09:36:40Z</time>
      </trkpt>
      <trkpt lat="50.46718" lon="1.76144">
        <ele>42.4</ele>
        <time>2019-10-06T09:36:45Z</time>
      </trkpt>
      <trkpt lat="50.4672" lon="1.76151">
        <ele>42.4</ele>
        <time>2019-10-06T09:36:51Z</time>
      </trkpt>
      <trkpt lat="50.46723" lon="1.76158">
        <ele>42.4</ele>
        <time>2019-10-06T09:36:57Z</time>
      </trkpt>
      <trkpt lat="50.46726" lon="1.76163">
        <ele>42.4</ele>
        <time>2019-10-06T09:37:02Z</time>
      </trkpt>
      <trkpt lat="50.46728" lon="1.7617">
        <ele>42.6</ele>
        <time>2019-10-06T09:37:09Z</time>
      </trkpt>
      <trkpt lat="50.46729" lon="1.76177">
        <ele>43</ele>
        <time>2019-10-06T09:37:23Z</time>
      </trkpt>
      <trkpt lat="50.4674" lon="1.76204">
        <ele>47.3</ele>
        <time>2019-10-06T09:38:54Z</time>
      </trkpt>
      <trkpt lat="50.46736" lon="1.76209">
        <ele>44.9</ele>
        <time>2019-10-06T09:39:27Z</time>
      </trkpt>
      <trkpt lat="50.46734" lon="1.76215">
        <ele>44.7</ele>
        <time>2019-10-06T09:39:33Z</time>
      </trkpt>
      <trkpt lat="50.46731" lon="1.76221">
        <ele>44</ele>
        <time>2019-10-06T09:39:39Z</time>
      </trkpt>
      <trkpt lat="50.46732" lon="1.76228">
        <ele>42.7</ele>
        <time>2019-10-06T09:39:46Z</time>
      </trkpt>
      <trkpt lat="50.46731" lon="1.76237">
        <ele>41.5</ele>
        <time>2019-10-06T09:39:52Z</time>
      </trkpt>
      <trkpt lat="50.4673" lon="1.76244">
        <ele>40.7</ele>
        <time>2019-10-06T09:39:57Z</time>
      </trkpt>
      <trkpt lat="50.46727" lon="1.76251">
        <ele>40.2</ele>
        <time>2019-10-06T09:40:03Z</time>
      </trkpt>
      <trkpt lat="50.46725" lon="1.76259">
        <ele>39.9</ele>
        <time>2019-10-06T09:40:08Z</time>
      </trkpt>
      <trkpt lat="50.46724" lon="1.76268">
        <ele>39.1</ele>
        <time>2019-10-06T09:40:14Z</time>
      </trkpt>
      <trkpt lat="50.46721" lon="1.76275">
        <ele>38.6</ele>
        <time>2019-10-06T09:40:18Z</time>
      </trkpt>
      <trkpt lat="50.46718" lon="1.76282">
        <ele>38</ele>
        <time>2019-10-06T09:40:23Z</time>
      </trkpt>
      <trkpt lat="50.46716" lon="1.76289">
        <ele>37.4</ele>
        <time>2019-10-06T09:40:28Z</time>
      </trkpt>
      <trkpt lat="50.46714" lon="1.76296">
        <ele>36.9</ele>
        <time>2019-10-06T09:40:32Z</time>
      </trkpt>
      <trkpt lat="50.46712" lon="1.76302">
        <ele>36.5</ele>
        <time>2019-10-06T09:40:36Z</time>
      </trkpt>
      <trkpt lat="50.46712" lon="1.76309">
        <ele>35.4</ele>
        <time>2019-10-06T09:40:43Z</time>
      </trkpt>
      <trkpt lat="50.46713" lon="1.76316">
        <ele>32</ele>
        <time>2019-10-06T09:41:05Z</time>
      </trkpt>
      <trkpt lat="50.4671" lon="1.76321">
        <ele>31.4</ele>
        <time>2019-10-06T09:41:12Z</time>
      </trkpt>
      <trkpt lat="50.46707" lon="1.76328">
        <ele>31.2</ele>
        <time>2019-10-06T09:41:19Z</time>
      </trkpt>
      <trkpt lat="50.46706" lon="1.76336">
        <ele>31.2</ele>
        <time>2019-10-06T09:41:25Z</time>
      </trkpt>
      <trkpt lat="50.46704" lon="1.76342">
        <ele>31.4</ele>
        <time>2019-10-06T09:41:30Z</time>
      </trkpt>
      <trkpt lat="50.46701" lon="1.76349">
        <ele>31.8</ele>
        <time>2019-10-06T09:41:36Z</time>
      </trkpt>
      <trkpt lat="50.46699" lon="1.76356">
        <ele>32.1</ele>
        <time>2019-10-06T09:41:42Z</time>
      </trkpt>
      <trkpt lat="50.46697" lon="1.76364">
        <ele>32.4</ele>
        <time>2019-10-06T09:41:48Z</time>
      </trkpt>
      <trkpt lat="50.46696" lon="1.76371">
        <ele>32.4</ele>
        <time>2019-10-06T09:41:53Z</time>
      </trkpt>
      <trkpt lat="50.46695" lon="1.76379">
        <ele>31.9</ele>
        <time>2019-10-06T09:41:59Z</time>
      </trkpt>
      <trkpt lat="50.46694" lon="1.76387">
        <ele>31.2</ele>
        <time>2019-10-06T09:42:04Z</time>
      </trkpt>
      <trkpt lat="50.46693" lon="1.76394">
        <ele>28.7</ele>
        <time>2019-10-06T09:42:55Z</time>
      </trkpt>
      <trkpt lat="50.46692" lon="1.76402">
        <ele>28.7</ele>
        <time>2019-10-06T09:43:00Z</time>
      </trkpt>
      <trkpt lat="50.46691" lon="1.7641">
        <ele>28.6</ele>
        <time>2019-10-06T09:43:04Z</time>
      </trkpt>
      <trkpt lat="50.46689" lon="1.76417">
        <ele>28.4</ele>
        <time>2019-10-06T09:43:08Z</time>
      </trkpt>
      <trkpt lat="50.46689" lon="1.76426">
        <ele>27.9</ele>
        <time>2019-10-06T09:43:13Z</time>
      </trkpt>
      <trkpt lat="50.46687" lon="1.76434">
        <ele>27.4</ele>
        <time>2019-10-06T09:43:18Z</time>
      </trkpt>
      <trkpt lat="50.46685" lon="1.76443">
        <ele>27</ele>
        <time>2019-10-06T09:43:23Z</time>
      </trkpt>
      <trkpt lat="50.46685" lon="1.7645">
        <ele>26.8</ele>
        <time>2019-10-06T09:43:29Z</time>
      </trkpt>
      <trkpt lat="50.46683" lon="1.76457">
        <ele>26.8</ele>
        <time>2019-10-06T09:43:34Z</time>
      </trkpt>
      <trkpt lat="50.46681" lon="1.76464">
        <ele>27</ele>
        <time>2019-10-06T09:43:39Z</time>
      </trkpt>
      <trkpt lat="50.46681" lon="1.76471">
        <ele>26.5</ele>
        <time>2019-10-06T09:44:17Z</time>
      </trkpt>
      <trkpt lat="50.46681" lon="1.76478">
        <ele>25.3</ele>
        <time>2019-10-06T09:44:31Z</time>
      </trkpt>
      <trkpt lat="50.46686" lon="1.76478">
        <ele>23.8</ele>
        <time>2019-10-06T09:44:42Z</time>
      </trkpt>
      <trkpt lat="50.46691" lon="1.76476">
        <ele>23.2</ele>
        <time>2019-10-06T09:44:49Z</time>
      </trkpt>
      <trkpt lat="50.46695" lon="1.76477">
        <ele>22.9</ele>
        <time>2019-10-06T09:45:02Z</time>
      </trkpt>
      <trkpt lat="50.467" lon="1.76477">
        <ele>22.7</ele>
        <time>2019-10-06T09:45:08Z</time>
      </trkpt>
      <trkpt lat="50.46705" lon="1.76477">
        <ele>22.1</ele>
        <time>2019-10-06T09:45:20Z</time>
      </trkpt>
      <trkpt lat="50.46709" lon="1.76477">
        <ele>20.7</ele>
        <time>2019-10-06T09:45:32Z</time>
      </trkpt>
      <trkpt lat="50.46713" lon="1.76481">
        <ele>17.6</ele>
        <time>2019-10-06T09:45:57Z</time>
      </trkpt>
      <trkpt lat="50.46718" lon="1.76479">
        <ele>16.8</ele>
        <time>2019-10-06T09:46:07Z</time>
      </trkpt>
      <trkpt lat="50.46723" lon="1.76477">
        <ele>16.6</ele>
        <time>2019-10-06T09:46:15Z</time>
      </trkpt>
      <trkpt lat="50.46727" lon="1.7648">
        <ele>16.6</ele>
        <time>2019-10-06T09:46:20Z</time>
      </trkpt>
      <trkpt lat="50.46732" lon="1.76484">
        <ele>16.5</ele>
        <time>2019-10-06T09:46:27Z</time>
      </trkpt>
      <trkpt lat="50.46736" lon="1.76485">
        <ele>16.4</ele>
        <time>2019-10-06T09:46:31Z</time>
      </trkpt>
      <trkpt lat="50.46741" lon="1.76488">
        <ele>16.5</ele>
        <time>2019-10-06T09:46:36Z</time>
      </trkpt>
      <trkpt lat="50.46747" lon="1.76491">
        <ele>17</ele>
        <time>2019-10-06T09:46:42Z</time>
      </trkpt>
      <trkpt lat="50.46751" lon="1.76494">
        <ele>17.4</ele>
        <time>2019-10-06T09:46:46Z</time>
      </trkpt>
      <trkpt lat="50.46756" lon="1.76496">
        <ele>17.8</ele>
        <time>2019-10-06T09:46:51Z</time>
      </trkpt>
      <trkpt lat="50.46761" lon="1.76499">
        <ele>17.9</ele>
        <time>2019-10-06T09:46:56Z</time>
      </trkpt>
      <trkpt lat="50.46766" lon="1.76501">
        <ele>17.8</ele>
        <time>2019-10-06T09:47:01Z</time>
      </trkpt>
      <trkpt lat="50.4677" lon="1.76504">
        <ele>17.6</ele>
        <time>2019-10-06T09:47:06Z</time>
      </trkpt>
      <trkpt lat="50.46774" lon="1.76509">
        <ele>16.8</ele>
        <time>2019-10-06T09:47:13Z</time>
      </trkpt>
      <trkpt lat="50.46778" lon="1.76514">
        <ele>15.8</ele>
        <time>2019-10-06T09:47:20Z</time>
      </trkpt>
      <trkpt lat="50.46783" lon="1.76518">
        <ele>15.1</ele>
        <time>2019-10-06T09:47:24Z</time>
      </trkpt>
      <trkpt lat="50.46788" lon="1.76522">
        <ele>14.6</ele>
        <time>2019-10-06T09:47:28Z</time>
      </trkpt>
      <trkpt lat="50.46792" lon="1.76526">
        <ele>14.1</ele>
        <time>2019-10-06T09:47:32Z</time>
      </trkpt>
      <trkpt lat="50.46796" lon="1.76532">
        <ele>13.6</ele>
        <time>2019-10-06T09:47:36Z</time>
      </trkpt>
      <trkpt lat="50.46799" lon="1.76537">
        <ele>13</ele>
        <time>2019-10-06T09:47:41Z</time>
      </trkpt>
      <trkpt lat="50.46803" lon="1.76543">
        <ele>12.7</ele>
        <time>2019-10-06T09:47:45Z</time>
      </trkpt>
      <trkpt lat="50.46806" lon="1.76548">
        <ele>12.1</ele>
        <time>2019-10-06T09:48:02Z</time>
      </trkpt>
      <trkpt lat="50.46804" lon="1.76555">
        <ele>9.9</ele>
        <time>2019-10-06T09:48:36Z</time>
      </trkpt>
      <trkpt lat="50.46809" lon="1.76553">
        <ele>8.6</ele>
        <time>2019-10-06T09:49:00Z</time>
      </trkpt>
      <trkpt lat="50.46813" lon="1.76555">
        <ele>8</ele>
        <time>2019-10-06T09:49:06Z</time>
      </trkpt>
      <trkpt lat="50.46817" lon="1.7656">
        <ele>5.1</ele>
        <time>2019-10-06T09:49:43Z</time>
      </trkpt>
      <trkpt lat="50.46818" lon="1.76568">
        <ele>4.5</ele>
        <time>2019-10-06T09:49:49Z</time>
      </trkpt>
      <trkpt lat="50.46818" lon="1.76575">
        <ele>3.8</ele>
        <time>2019-10-06T09:49:57Z</time>
      </trkpt>
      <trkpt lat="50.46818" lon="1.76583">
        <ele>3.8</ele>
        <time>2019-10-06T09:50:02Z</time>
      </trkpt>
      <trkpt lat="50.46816" lon="1.76591">
        <ele>4.1</ele>
        <time>2019-10-06T09:50:08Z</time>
      </trkpt>
      <trkpt lat="50.46815" lon="1.76598">
        <ele>4.6</ele>
        <time>2019-10-06T09:50:12Z</time>
      </trkpt>
      <trkpt lat="50.46815" lon="1.76606">
        <ele>5.4</ele>
        <time>2019-10-06T09:50:17Z</time>
      </trkpt>
      <trkpt lat="50.46813" lon="1.76613">
        <ele>6.2</ele>
        <time>2019-10-06T09:50:22Z</time>
      </trkpt>
      <trkpt lat="50.46812" lon="1.76622">
        <ele>6.8</ele>
        <time>2019-10-06T09:50:26Z</time>
      </trkpt>
      <trkpt lat="50.46811" lon="1.76629">
        <ele>7.2</ele>
        <time>2019-10-06T09:50:29Z</time>
      </trkpt>
      <trkpt lat="50.46811" lon="1.76636">
        <ele>7.7</ele>
        <time>2019-10-06T09:50:33Z</time>
      </trkpt>
      <trkpt lat="50.4681" lon="1.76645">
        <ele>8</ele>
        <time>2019-10-06T09:50:37Z</time>
      </trkpt>
      <trkpt lat="50.46808" lon="1.76652">
        <ele>8.2</ele>
        <time>2019-10-06T09:50:41Z</time>
      </trkpt>
      <trkpt lat="50.46806" lon="1.76658">
        <ele>8.5</ele>
        <time>2019-10-06T09:50:48Z</time>
      </trkpt>
      <trkpt lat="50.46802" lon="1.76664">
        <ele>8.7</ele>
        <time>2019-10-06T09:50:51Z</time>
      </trkpt>
      <trkpt lat="50.46798" lon="1.7667">
        <ele>8.9</ele>
        <time>2019-10-06T09:50:54Z</time>
      </trkpt>
      <trkpt lat="50.46795" lon="1.76677">
        <ele>9.1</ele>
        <time>2019-10-06T09:50:58Z</time>
      </trkpt>
      <trkpt lat="50.46792" lon="1.76684">
        <ele>9.7</ele>
        <time>2019-10-06T09:51:03Z</time>
      </trkpt>
      <trkpt lat="50.46791" lon="1.76691">
        <ele>10.3</ele>
        <time>2019-10-06T09:51:07Z</time>
      </trkpt>
      <trkpt lat="50.46789" lon="1.76698">
        <ele>11.5</ele>
        <time>2019-10-06T09:51:12Z</time>
      </trkpt>
      <trkpt lat="50.46785" lon="1.76706">
        <ele>12.4</ele>
        <time>2019-10-06T09:51:15Z</time>
      </trkpt>
      <trkpt lat="50.46782" lon="1.76712">
        <ele>13.6</ele>
        <time>2019-10-06T09:51:19Z</time>
      </trkpt>
      <trkpt lat="50.46777" lon="1.76717">
        <ele>15</ele>
        <time>2019-10-06T09:51:24Z</time>
      </trkpt>
      <trkpt lat="50.46775" lon="1.76723">
        <ele>15.8</ele>
        <time>2019-10-06T09:51:28Z</time>
      </trkpt>
      <trkpt lat="50.46772" lon="1.76729">
        <ele>16.4</ele>
        <time>2019-10-06T09:51:32Z</time>
      </trkpt>
      <trkpt lat="50.46768" lon="1.76736">
        <ele>16.9</ele>
        <time>2019-10-06T09:51:36Z</time>
      </trkpt>
      <trkpt lat="50.46766" lon="1.76741">
        <ele>17.1</ele>
        <time>2019-10-06T09:51:40Z</time>
      </trkpt>
      <trkpt lat="50.46762" lon="1.76747">
        <ele>17.2</ele>
        <time>2019-10-06T09:51:46Z</time>
      </trkpt>
      <trkpt lat="50.46759" lon="1.76753">
        <ele>16.4</ele>
        <time>2019-10-06T09:51:58Z</time>
      </trkpt>
      <trkpt lat="50.46755" lon="1.76756">
        <ele>11.3</ele>
        <time>2019-10-06T09:52:50Z</time>
      </trkpt>
      <trkpt lat="50.46756" lon="1.76763">
        <ele>8.7</ele>
        <time>2019-10-06T09:53:30Z</time>
      </trkpt>
      <trkpt lat="50.46761" lon="1.76766">
        <ele>6.6</ele>
        <time>2019-10-06T09:53:58Z</time>
      </trkpt>
      <trkpt lat="50.46766" lon="1.76768">
        <ele>6</ele>
        <time>2019-10-06T09:54:03Z</time>
      </trkpt>
      <trkpt lat="50.4677" lon="1.7677">
        <ele>5.7</ele>
        <time>2019-10-06T09:54:09Z</time>
      </trkpt>
      <trkpt lat="50.46775" lon="1.76772">
        <ele>4.8</ele>
        <time>2019-10-06T09:54:28Z</time>
      </trkpt>
      <trkpt lat="50.46779" lon="1.76775">
        <ele>4</ele>
        <time>2019-10-06T09:54:44Z</time>
      </trkpt>
      <trkpt lat="50.46782" lon="1.76781">
        <ele>4</ele>
        <time>2019-10-06T09:55:18Z</time>
      </trkpt>
      <trkpt lat="50.46784" lon="1.76787">
        <ele>3.5</ele>
        <time>2019-10-06T09:56:48Z</time>
      </trkpt>
      <trkpt lat="50.46788" lon="1.7679">
        <ele>3</ele>
        <time>2019-10-06T09:56:53Z</time>
      </trkpt>
      <trkpt lat="50.46792" lon="1.76794">
        <ele>2.8</ele>
        <time>2019-10-06T09:56:58Z</time>
      </trkpt>
      <trkpt lat="50.46797" lon="1.76796">
        <ele>2.7</ele>
        <time>2019-10-06T09:57:03Z</time>
      </trkpt>
      <trkpt lat="50.46802" lon="1.768">
        <ele>2.6</ele>
        <time>2019-10-06T09:57:08Z</time>
      </trkpt>
      <trkpt lat="50.46806" lon="1.76803">
        <ele>2.7</ele>
        <time>2019-10-06T09:57:14Z</time>
      </trkpt>
      <trkpt lat="50.46811" lon="1.76807">
        <ele>2.7</ele>
        <time>2019-10-06T09:57:21Z</time>
      </trkpt>
      <trkpt lat="50.46815" lon="1.76812">
        <ele>2.7</ele>
        <time>2019-10-06T09:57:26Z</time>
      </trkpt>
      <trkpt lat="50.46819" lon="1.76815">
        <ele>2.6</ele>
        <time>2019-10-06T09:57:30Z</time>
      </trkpt>
      <trkpt lat="50.46824" lon="1.7682">
        <ele>2.6</ele>
        <time>2019-10-06T09:57:35Z</time>
      </trkpt>
      <trkpt lat="50.46826" lon="1.76825">
        <ele>2.6</ele>
        <time>2019-10-06T09:57:57Z</time>
      </trkpt>
      <trkpt lat="50.4683" lon="1.7683">
        <ele>2.6</ele>
        <time>2019-10-06T09:58:07Z</time>
      </trkpt>
      <trkpt lat="50.46835" lon="1.76833">
        <ele>2.6</ele>
        <time>2019-10-06T09:58:13Z</time>
      </trkpt>
      <trkpt lat="50.46839" lon="1.76837">
        <ele>2.6</ele>
        <time>2019-10-06T09:58:19Z</time>
      </trkpt>
      <trkpt lat="50.46844" lon="1.76841">
        <ele>2.7</ele>
        <time>2019-10-06T09:58:24Z</time>
      </trkpt>
      <trkpt lat="50.46849" lon="1.76844">
        <ele>2.8</ele>
        <time>2019-10-06T09:58:29Z</time>
      </trkpt>
      <trkpt lat="50.46853" lon="1.76847">
        <ele>2.7</ele>
        <time>2019-10-06T09:58:33Z</time>
      </trkpt>
      <trkpt lat="50.46857" lon="1.76852">
        <ele>2.6</ele>
        <time>2019-10-06T09:58:40Z</time>
      </trkpt>
      <trkpt lat="50.4686" lon="1.76857">
        <ele>2.6</ele>
        <time>2019-10-06T09:58:45Z</time>
      </trkpt>
      <trkpt lat="50.46864" lon="1.76861">
        <ele>2.6</ele>
        <time>2019-10-06T09:58:49Z</time>
      </trkpt>
      <trkpt lat="50.46868" lon="1.76866">
        <ele>2.6</ele>
        <time>2019-10-06T09:58:54Z</time>
      </trkpt>
      <trkpt lat="50.46872" lon="1.76869">
        <ele>2.6</ele>
        <time>2019-10-06T09:58:59Z</time>
      </trkpt>
      <trkpt lat="50.46877" lon="1.76873">
        <ele>2.6</ele>
        <time>2019-10-06T09:59:04Z</time>
      </trkpt>
      <trkpt lat="50.46881" lon="1.76876">
        <ele>2.6</ele>
        <time>2019-10-06T09:59:11Z</time>
      </trkpt>
      <trkpt lat="50.46886" lon="1.76876">
        <ele>2.6</ele>
        <time>2019-10-06T09:59:15Z</time>
      </trkpt>
      <trkpt lat="50.46891" lon="1.76878">
        <ele>2.6</ele>
        <time>2019-10-06T09:59:23Z</time>
      </trkpt>
      <trkpt lat="50.46896" lon="1.7688">
        <ele>2.6</ele>
        <time>2019-10-06T09:59:32Z</time>
      </trkpt>
      <trkpt lat="50.46899" lon="1.76884">
        <ele>2.6</ele>
        <time>2019-10-06T09:59:49Z</time>
      </trkpt>
      <trkpt lat="50.46899" lon="1.76891">
        <ele>2.6</ele>
        <time>2019-10-06T10:00:46Z</time>
      </trkpt>
      <trkpt lat="50.46902" lon="1.76898">
        <ele>2.6</ele>
        <time>2019-10-06T10:01:49Z</time>
      </trkpt>
      <trkpt lat="50.46906" lon="1.76901">
        <ele>2.6</ele>
        <time>2019-10-06T10:02:10Z</time>
      </trkpt>
      <trkpt lat="50.4691" lon="1.76906">
        <ele>2.6</ele>
        <time>2019-10-06T10:02:23Z</time>
      </trkpt>
      <trkpt lat="50.46914" lon="1.7691">
        <ele>2.6</ele>
        <time>2019-10-06T10:02:26Z</time>
      </trkpt>
      <trkpt lat="50.46918" lon="1.76913">
        <ele>2.6</ele>
        <time>2019-10-06T10:02:30Z</time>
      </trkpt>
      <trkpt lat="50.46923" lon="1.76916">
        <ele>2.6</ele>
        <time>2019-10-06T10:02:35Z</time>
      </trkpt>
      <trkpt lat="50.46927" lon="1.7692">
        <ele>2.6</ele>
        <time>2019-10-06T10:02:38Z</time>
      </trkpt>
      <trkpt lat="50.46931" lon="1.76926">
        <ele>2.6</ele>
        <time>2019-10-06T10:02:41Z</time>
      </trkpt>
      <trkpt lat="50.46934" lon="1.76931">
        <ele>2.6</ele>
        <time>2019-10-06T10:02:45Z</time>
      </trkpt>
      <trkpt lat="50.46938" lon="1.76936">
        <ele>2.6</ele>
        <time>2019-10-06T10:02:53Z</time>
      </trkpt>
      <trkpt lat="50.46943" lon="1.76939">
        <ele>2.6</ele>
        <time>2019-10-06T10:02:58Z</time>
      </trkpt>
      <trkpt lat="50.46946" lon="1.76945">
        <ele>2.6</ele>
        <time>2019-10-06T10:03:03Z</time>
      </trkpt>
      <trkpt lat="50.46949" lon="1.76951">
        <ele>2.6</ele>
        <time>2019-10-06T10:03:08Z</time>
      </trkpt>
      <trkpt lat="50.46954" lon="1.76952">
        <ele>2.6</ele>
        <time>2019-10-06T10:03:13Z</time>
      </trkpt>
      <trkpt lat="50.46958" lon="1.7695">
        <ele>2.6</ele>
        <time>2019-10-06T10:03:19Z</time>
      </trkpt>
      <trkpt lat="50.46954" lon="1.76953">
        <ele>2.6</ele>
        <time>2019-10-06T10:03:34Z</time>
      </trkpt>
      <trkpt lat="50.46949" lon="1.76952">
        <ele>2.6</ele>
        <time>2019-10-06T10:03:43Z</time>
      </trkpt>
      <trkpt lat="50.46953" lon="1.76956">
        <ele>5.2</ele>
        <time>2019-10-06T10:04:08Z</time>
      </trkpt>
      <trkpt lat="50.46958" lon="1.76954">
        <ele>6.1</ele>
        <time>2019-10-06T10:04:27Z</time>
      </trkpt>
      <trkpt lat="50.46962" lon="1.76948">
        <ele>6.2</ele>
        <time>2019-10-06T10:04:30Z</time>
      </trkpt>
      <trkpt lat="50.46965" lon="1.7694">
        <ele>6.1</ele>
        <time>2019-10-06T10:04:33Z</time>
      </trkpt>
      <trkpt lat="50.46968" lon="1.7693">
        <ele>5.9</ele>
        <time>2019-10-06T10:04:36Z</time>
      </trkpt>
      <trkpt lat="50.46971" lon="1.76923">
        <ele>5.5</ele>
        <time>2019-10-06T10:04:39Z</time>
      </trkpt>
      <trkpt lat="50.46973" lon="1.76916">
        <ele>5.1</ele>
        <time>2019-10-06T10:04:42Z</time>
      </trkpt>
      <trkpt lat="50.46975" lon="1.7691">
        <ele>4.6</ele>
        <time>2019-10-06T10:04:45Z</time>
      </trkpt>
      <trkpt lat="50.46977" lon="1.76902">
        <ele>3.9</ele>
        <time>2019-10-06T10:04:49Z</time>
      </trkpt>
      <trkpt lat="50.46978" lon="1.76894">
        <ele>3.3</ele>
        <time>2019-10-06T10:04:53Z</time>
      </trkpt>
      <trkpt lat="50.46977" lon="1.76887">
        <ele>3</ele>
        <time>2019-10-06T10:04:57Z</time>
      </trkpt>
      <trkpt lat="50.46976" lon="1.76879">
        <ele>2.8</ele>
        <time>2019-10-06T10:05:02Z</time>
      </trkpt>
      <trkpt lat="50.46974" lon="1.76872">
        <ele>2.7</ele>
        <time>2019-10-06T10:05:06Z</time>
      </trkpt>
      <trkpt lat="50.46971" lon="1.76864">
        <ele>2.6</ele>
        <time>2019-10-06T10:05:10Z</time>
      </trkpt>
      <trkpt lat="50.46968" lon="1.76856">
        <ele>2.6</ele>
        <time>2019-10-06T10:05:13Z</time>
      </trkpt>
      <trkpt lat="50.46966" lon="1.76849">
        <ele>2.6</ele>
        <time>2019-10-06T10:05:16Z</time>
      </trkpt>
      <trkpt lat="50.46963" lon="1.76842">
        <ele>2.6</ele>
        <time>2019-10-06T10:05:19Z</time>
      </trkpt>
      <trkpt lat="50.4696" lon="1.76836">
        <ele>2.6</ele>
        <time>2019-10-06T10:05:23Z</time>
      </trkpt>
      <trkpt lat="50.46959" lon="1.76829">
        <ele>2.6</ele>
        <time>2019-10-06T10:05:27Z</time>
      </trkpt>
      <trkpt lat="50.46958" lon="1.76822">
        <ele>2.6</ele>
        <time>2019-10-06T10:05:31Z</time>
      </trkpt>
      <trkpt lat="50.46957" lon="1.76815">
        <ele>2.6</ele>
        <time>2019-10-06T10:05:39Z</time>
      </trkpt>
      <trkpt lat="50.46953" lon="1.76808">
        <ele>2.6</ele>
        <time>2019-10-06T10:05:49Z</time>
      </trkpt>
      <trkpt lat="50.46952" lon="1.76801">
        <ele>2.6</ele>
        <time>2019-10-06T10:05:56Z</time>
      </trkpt>
      <trkpt lat="50.46951" lon="1.76794">
        <ele>2.6</ele>
        <time>2019-10-06T10:06:16Z</time>
      </trkpt>
      <trkpt lat="50.46952" lon="1.76785">
        <ele>2.6</ele>
        <time>2019-10-06T10:06:29Z</time>
      </trkpt>
      <trkpt lat="50.46948" lon="1.7678">
        <ele>2.6</ele>
        <time>2019-10-06T10:06:36Z</time>
      </trkpt>
      <trkpt lat="50.46947" lon="1.76772">
        <ele>2.6</ele>
        <time>2019-10-06T10:06:41Z</time>
      </trkpt>
      <trkpt lat="50.46946" lon="1.76763">
        <ele>2.6</ele>
        <time>2019-10-06T10:06:46Z</time>
      </trkpt>
      <trkpt lat="50.46948" lon="1.76754">
        <ele>2.6</ele>
        <time>2019-10-06T10:06:50Z</time>
      </trkpt>
      <trkpt lat="50.46948" lon="1.76746">
        <ele>2.6</ele>
        <time>2019-10-06T10:06:55Z</time>
      </trkpt>
      <trkpt lat="50.4695" lon="1.76739">
        <ele>2.6</ele>
        <time>2019-10-06T10:06:59Z</time>
      </trkpt>
      <trkpt lat="50.46951" lon="1.76731">
        <ele>2.6</ele>
        <time>2019-10-06T10:07:04Z</time>
      </trkpt>
      <trkpt lat="50.46951" lon="1.76722">
        <ele>2.6</ele>
        <time>2019-10-06T10:07:08Z</time>
      </trkpt>
      <trkpt lat="50.46952" lon="1.76714">
        <ele>2.6</ele>
        <time>2019-10-06T10:07:11Z</time>
      </trkpt>
      <trkpt lat="50.46953" lon="1.76707">
        <ele>2.6</ele>
        <time>2019-10-06T10:07:15Z</time>
      </trkpt>
      <trkpt lat="50.46954" lon="1.76699">
        <ele>2.6</ele>
        <time>2019-10-06T10:07:20Z</time>
      </trkpt>
      <trkpt lat="50.46954" lon="1.76692">
        <ele>2.6</ele>
        <time>2019-10-06T10:07:25Z</time>
      </trkpt>
      <trkpt lat="50.46955" lon="1.76683">
        <ele>2.6</ele>
        <time>2019-10-06T10:07:29Z</time>
      </trkpt>
      <trkpt lat="50.46955" lon="1.76675">
        <ele>2.6</ele>
        <time>2019-10-06T10:07:33Z</time>
      </trkpt>
      <trkpt lat="50.46955" lon="1.76667">
        <ele>2.6</ele>
        <time>2019-10-06T10:07:37Z</time>
      </trkpt>
      <trkpt lat="50.46957" lon="1.76658">
        <ele>2.6</ele>
        <time>2019-10-06T10:07:41Z</time>
      </trkpt>
      <trkpt lat="50.46957" lon="1.76651">
        <ele>2.6</ele>
        <time>2019-10-06T10:07:45Z</time>
      </trkpt>
      <trkpt lat="50.46956" lon="1.76643">
        <ele>2.6</ele>
        <time>2019-10-06T10:07:50Z</time>
      </trkpt>
      <trkpt lat="50.46956" lon="1.76635">
        <ele>2.6</ele>
        <time>2019-10-06T10:07:54Z</time>
      </trkpt>
      <trkpt lat="50.46956" lon="1.76627">
        <ele>2.6</ele>
        <time>2019-10-06T10:07:58Z</time>
      </trkpt>
      <trkpt lat="50.46956" lon="1.76619">
        <ele>2.6</ele>
        <time>2019-10-06T10:08:02Z</time>
      </trkpt>
      <trkpt lat="50.46956" lon="1.76611">
        <ele>2.6</ele>
        <time>2019-10-06T10:08:06Z</time>
      </trkpt>
      <trkpt lat="50.46956" lon="1.76604">
        <ele>2.6</ele>
        <time>2019-10-06T10:08:10Z</time>
      </trkpt>
      <trkpt lat="50.46956" lon="1.76596">
        <ele>2.6</ele>
        <time>2019-10-06T10:08:16Z</time>
      </trkpt>
      <trkpt lat="50.46955" lon="1.76588">
        <ele>2.6</ele>
        <time>2019-10-06T10:08:21Z</time>
      </trkpt>
      <trkpt lat="50.46955" lon="1.76581">
        <ele>2.6</ele>
        <time>2019-10-06T10:08:24Z</time>
      </trkpt>
      <trkpt lat="50.46956" lon="1.76572">
        <ele>2.6</ele>
        <time>2019-10-06T10:08:27Z</time>
      </trkpt>
      <trkpt lat="50.46957" lon="1.76564">
        <ele>2.6</ele>
        <time>2019-10-06T10:08:30Z</time>
      </trkpt>
      <trkpt lat="50.46958" lon="1.76557">
        <ele>2.6</ele>
        <time>2019-10-06T10:08:34Z</time>
      </trkpt>
      <trkpt lat="50.46959" lon="1.76549">
        <ele>2.6</ele>
        <time>2019-10-06T10:08:40Z</time>
      </trkpt>
      <trkpt lat="50.46959" lon="1.7654">
        <ele>2.6</ele>
        <time>2019-10-06T10:08:45Z</time>
      </trkpt>
      <trkpt lat="50.46958" lon="1.76533">
        <ele>2.6</ele>
        <time>2019-10-06T10:08:49Z</time>
      </trkpt>
      <trkpt lat="50.46957" lon="1.76526">
        <ele>2.6</ele>
        <time>2019-10-06T10:08:52Z</time>
      </trkpt>
      <trkpt lat="50.46956" lon="1.76519">
        <ele>2.6</ele>
        <time>2019-10-06T10:08:55Z</time>
      </trkpt>
      <trkpt lat="50.46956" lon="1.76511">
        <ele>2.6</ele>
        <time>2019-10-06T10:08:59Z</time>
      </trkpt>
      <trkpt lat="50.46955" lon="1.76502">
        <ele>2.6</ele>
        <time>2019-10-06T10:09:03Z</time>
      </trkpt>
      <trkpt lat="50.46954" lon="1.76495">
        <ele>2.6</ele>
        <time>2019-10-06T10:09:06Z</time>
      </trkpt>
      <trkpt lat="50.46952" lon="1.76488">
        <ele>2.6</ele>
        <time>2019-10-06T10:09:12Z</time>
      </trkpt>
      <trkpt lat="50.4695" lon="1.76481">
        <ele>2.6</ele>
        <time>2019-10-06T10:09:17Z</time>
      </trkpt>
      <trkpt lat="50.46949" lon="1.76472">
        <ele>2.6</ele>
        <time>2019-10-06T10:09:20Z</time>
      </trkpt>
      <trkpt lat="50.46948" lon="1.76464">
        <ele>2.6</ele>
        <time>2019-10-06T10:09:24Z</time>
      </trkpt>
      <trkpt lat="50.46946" lon="1.76457">
        <ele>2.6</ele>
        <time>2019-10-06T10:09:28Z</time>
      </trkpt>
      <trkpt lat="50.46945" lon="1.7645">
        <ele>2.6</ele>
        <time>2019-10-06T10:09:32Z</time>
      </trkpt>
      <trkpt lat="50.46943" lon="1.76441">
        <ele>2.6</ele>
        <time>2019-10-06T10:09:37Z</time>
      </trkpt>
      <trkpt lat="50.46942" lon="1.76433">
        <ele>2.6</ele>
        <time>2019-10-06T10:09:40Z</time>
      </trkpt>
      <trkpt lat="50.46941" lon="1.76425">
        <ele>2.6</ele>
        <time>2019-10-06T10:09:45Z</time>
      </trkpt>
      <trkpt lat="50.4694" lon="1.76418">
        <ele>2.6</ele>
        <time>2019-10-06T10:09:50Z</time>
      </trkpt>
      <trkpt lat="50.46939" lon="1.7641">
        <ele>2.6</ele>
        <time>2019-10-06T10:09:55Z</time>
      </trkpt>
      <trkpt lat="50.46939" lon="1.76402">
        <ele>2.6</ele>
        <time>2019-10-06T10:10:00Z</time>
      </trkpt>
      <trkpt lat="50.4694" lon="1.76394">
        <ele>2.6</ele>
        <time>2019-10-06T10:10:06Z</time>
      </trkpt>
      <trkpt lat="50.46942" lon="1.76387">
        <ele>2.6</ele>
        <time>2019-10-06T10:10:11Z</time>
      </trkpt>
      <trkpt lat="50.46944" lon="1.76379">
        <ele>2.6</ele>
        <time>2019-10-06T10:10:17Z</time>
      </trkpt>
      <trkpt lat="50.46945" lon="1.76372">
        <ele>2.6</ele>
        <time>2019-10-06T10:10:21Z</time>
      </trkpt>
      <trkpt lat="50.46944" lon="1.76365">
        <ele>2.6</ele>
        <time>2019-10-06T10:10:26Z</time>
      </trkpt>
      <trkpt lat="50.46942" lon="1.76358">
        <ele>2.6</ele>
        <time>2019-10-06T10:10:31Z</time>
      </trkpt>
      <trkpt lat="50.4694" lon="1.76326">
        <ele>2.6</ele>
        <time>2019-10-06T10:10:59Z</time>
      </trkpt>
      <trkpt lat="50.46937" lon="1.7632">
        <ele>2.6</ele>
        <time>2019-10-06T10:11:45Z</time>
      </trkpt>
      <trkpt lat="50.46933" lon="1.76314">
        <ele>2.6</ele>
        <time>2019-10-06T10:11:51Z</time>
      </trkpt>
      <trkpt lat="50.4693" lon="1.76308">
        <ele>2.6</ele>
        <time>2019-10-06T10:12:01Z</time>
      </trkpt>
      <trkpt lat="50.46927" lon="1.76302">
        <ele>2.6</ele>
        <time>2019-10-06T10:12:05Z</time>
      </trkpt>
      <trkpt lat="50.46924" lon="1.76294">
        <ele>2.6</ele>
        <time>2019-10-06T10:12:09Z</time>
      </trkpt>
      <trkpt lat="50.46921" lon="1.7629">
        <ele>2.6</ele>
        <time>2019-10-06T10:12:13Z</time>
      </trkpt>
      <trkpt lat="50.46916" lon="1.76276">
        <ele>3.8</ele>
        <time>2019-10-06T10:12:28Z</time>
      </trkpt>
      <trkpt lat="50.46915" lon="1.76268">
        <ele>4.5</ele>
        <time>2019-10-06T10:12:33Z</time>
      </trkpt>
      <trkpt lat="50.46914" lon="1.76261">
        <ele>4.8</ele>
        <time>2019-10-06T10:12:39Z</time>
      </trkpt>
      <trkpt lat="50.46914" lon="1.76254">
        <ele>4.9</ele>
        <time>2019-10-06T10:12:44Z</time>
      </trkpt>
      <trkpt lat="50.46912" lon="1.76247">
        <ele>4.9</ele>
        <time>2019-10-06T10:12:47Z</time>
      </trkpt>
      <trkpt lat="50.46909" lon="1.7624">
        <ele>4.9</ele>
        <time>2019-10-06T10:12:50Z</time>
      </trkpt>
      <trkpt lat="50.46907" lon="1.76232">
        <ele>5.1</ele>
        <time>2019-10-06T10:12:55Z</time>
      </trkpt>
      <trkpt lat="50.46906" lon="1.76225">
        <ele>5.4</ele>
        <time>2019-10-06T10:12:59Z</time>
      </trkpt>
      <trkpt lat="50.46906" lon="1.76216">
        <ele>5.7</ele>
        <time>2019-10-06T10:13:05Z</time>
      </trkpt>
      <trkpt lat="50.46908" lon="1.76208">
        <ele>5.8</ele>
        <time>2019-10-06T10:13:09Z</time>
      </trkpt>
      <trkpt lat="50.46907" lon="1.76201">
        <ele>6.2</ele>
        <time>2019-10-06T10:13:14Z</time>
      </trkpt>
      <trkpt lat="50.46904" lon="1.76182">
        <ele>7.8</ele>
        <time>2019-10-06T10:13:25Z</time>
      </trkpt>
      <trkpt lat="50.46905" lon="1.76175">
        <ele>7.9</ele>
        <time>2019-10-06T10:13:28Z</time>
      </trkpt>
      <trkpt lat="50.46907" lon="1.76167">
        <ele>7.7</ele>
        <time>2019-10-06T10:13:35Z</time>
      </trkpt>
      <trkpt lat="50.46907" lon="1.76159">
        <ele>7.2</ele>
        <time>2019-10-06T10:13:39Z</time>
      </trkpt>
      <trkpt lat="50.46907" lon="1.76151">
        <ele>6.5</ele>
        <time>2019-10-06T10:13:43Z</time>
      </trkpt>
      <trkpt lat="50.46906" lon="1.76143">
        <ele>5.5</ele>
        <time>2019-10-06T10:13:49Z</time>
      </trkpt>
      <trkpt lat="50.46908" lon="1.76134">
        <ele>4.9</ele>
        <time>2019-10-06T10:13:53Z</time>
      </trkpt>
      <trkpt lat="50.46909" lon="1.76127">
        <ele>4.3</ele>
        <time>2019-10-06T10:13:57Z</time>
      </trkpt>
      <trkpt lat="50.46909" lon="1.76119">
        <ele>3.7</ele>
        <time>2019-10-06T10:14:02Z</time>
      </trkpt>
      <trkpt lat="50.46911" lon="1.7611">
        <ele>3.4</ele>
        <time>2019-10-06T10:14:06Z</time>
      </trkpt>
      <trkpt lat="50.46914" lon="1.76103">
        <ele>3</ele>
        <time>2019-10-06T10:14:11Z</time>
      </trkpt>
      <trkpt lat="50.46915" lon="1.76096">
        <ele>2.8</ele>
        <time>2019-10-06T10:14:15Z</time>
      </trkpt>
      <trkpt lat="50.46917" lon="1.76087">
        <ele>2.7</ele>
        <time>2019-10-06T10:14:20Z</time>
      </trkpt>
      <trkpt lat="50.46918" lon="1.7608">
        <ele>2.6</ele>
        <time>2019-10-06T10:14:24Z</time>
      </trkpt>
      <trkpt lat="50.4692" lon="1.76073">
        <ele>2.6</ele>
        <time>2019-10-06T10:14:28Z</time>
      </trkpt>
      <trkpt lat="50.46922" lon="1.76065">
        <ele>2.6</ele>
        <time>2019-10-06T10:14:32Z</time>
      </trkpt>
      <trkpt lat="50.46924" lon="1.76057">
        <ele>2.6</ele>
        <time>2019-10-06T10:14:36Z</time>
      </trkpt>
      <trkpt lat="50.46926" lon="1.7605">
        <ele>2.6</ele>
        <time>2019-10-06T10:14:41Z</time>
      </trkpt>
      <trkpt lat="50.46928" lon="1.76042">
        <ele>2.6</ele>
        <time>2019-10-06T10:14:45Z</time>
      </trkpt>
      <trkpt lat="50.46931" lon="1.76034">
        <ele>2.6</ele>
        <time>2019-10-06T10:14:49Z</time>
      </trkpt>
      <trkpt lat="50.46932" lon="1.76027">
        <ele>2.6</ele>
        <time>2019-10-06T10:14:53Z</time>
      </trkpt>
      <trkpt lat="50.46934" lon="1.7602">
        <ele>2.6</ele>
        <time>2019-10-06T10:14:58Z</time>
      </trkpt>
      <trkpt lat="50.46935" lon="1.76013">
        <ele>2.6</ele>
        <time>2019-10-06T10:15:03Z</time>
      </trkpt>
      <trkpt lat="50.46938" lon="1.76008">
        <ele>2.6</ele>
        <time>2019-10-06T10:15:07Z</time>
      </trkpt>
      <trkpt lat="50.46941" lon="1.76">
        <ele>2.6</ele>
        <time>2019-10-06T10:15:11Z</time>
      </trkpt>
      <trkpt lat="50.46942" lon="1.75993">
        <ele>2.6</ele>
        <time>2019-10-06T10:15:15Z</time>
      </trkpt>
      <trkpt lat="50.46944" lon="1.75984">
        <ele>2.6</ele>
        <time>2019-10-06T10:15:20Z</time>
      </trkpt>
      <trkpt lat="50.46945" lon="1.75977">
        <ele>2.6</ele>
        <time>2019-10-06T10:15:25Z</time>
      </trkpt>
      <trkpt lat="50.46947" lon="1.7597">
        <ele>2.6</ele>
        <time>2019-10-06T10:15:30Z</time>
      </trkpt>
      <trkpt lat="50.46949" lon="1.75963">
        <ele>2.6</ele>
        <time>2019-10-06T10:15:35Z</time>
      </trkpt>
      <trkpt lat="50.46952" lon="1.75955">
        <ele>2.6</ele>
        <time>2019-10-06T10:15:39Z</time>
      </trkpt>
      <trkpt lat="50.46954" lon="1.75948">
        <ele>2.6</ele>
        <time>2019-10-06T10:15:43Z</time>
      </trkpt>
      <trkpt lat="50.46957" lon="1.7594">
        <ele>2.6</ele>
        <time>2019-10-06T10:15:47Z</time>
      </trkpt>
      <trkpt lat="50.4696" lon="1.75933">
        <ele>2.6</ele>
        <time>2019-10-06T10:15:52Z</time>
      </trkpt>
      <trkpt lat="50.46963" lon="1.75925">
        <ele>2.6</ele>
        <time>2019-10-06T10:15:56Z</time>
      </trkpt>
      <trkpt lat="50.46964" lon="1.75918">
        <ele>2.6</ele>
        <time>2019-10-06T10:16:00Z</time>
      </trkpt>
      <trkpt lat="50.46967" lon="1.7591">
        <ele>2.6</ele>
        <time>2019-10-06T10:16:05Z</time>
      </trkpt>
      <trkpt lat="50.46969" lon="1.75903">
        <ele>2.6</ele>
        <time>2019-10-06T10:16:10Z</time>
      </trkpt>
      <trkpt lat="50.46971" lon="1.75896">
        <ele>2.6</ele>
        <time>2019-10-06T10:16:14Z</time>
      </trkpt>
      <trkpt lat="50.46972" lon="1.75889">
        <ele>2.6</ele>
        <time>2019-10-06T10:16:19Z</time>
      </trkpt>
      <trkpt lat="50.46975" lon="1.7588">
        <ele>2.6</ele>
        <time>2019-10-06T10:16:24Z</time>
      </trkpt>
      <trkpt lat="50.46978" lon="1.75872">
        <ele>2.6</ele>
        <time>2019-10-06T10:16:27Z</time>
      </trkpt>
      <trkpt lat="50.4698" lon="1.75866">
        <ele>2.6</ele>
        <time>2019-10-06T10:16:31Z</time>
      </trkpt>
      <trkpt lat="50.46982" lon="1.75859">
        <ele>2.6</ele>
        <time>2019-10-06T10:16:37Z</time>
      </trkpt>
      <trkpt lat="50.46986" lon="1.75854">
        <ele>2.6</ele>
        <time>2019-10-06T10:16:41Z</time>
      </trkpt>
      <trkpt lat="50.4699" lon="1.75849">
        <ele>2.6</ele>
        <time>2019-10-06T10:16:45Z</time>
      </trkpt>
      <trkpt lat="50.46991" lon="1.75842">
        <ele>2.6</ele>
        <time>2019-10-06T10:16:48Z</time>
      </trkpt>
      <trkpt lat="50.46995" lon="1.75836">
        <ele>2.6</ele>
        <time>2019-10-06T10:16:54Z</time>
      </trkpt>
      <trkpt lat="50.46997" lon="1.75829">
        <ele>2.6</ele>
        <time>2019-10-06T10:16:58Z</time>
      </trkpt>
      <trkpt lat="50.47" lon="1.75823">
        <ele>2.6</ele>
        <time>2019-10-06T10:17:05Z</time>
      </trkpt>
      <trkpt lat="50.47002" lon="1.75816">
        <ele>2.6</ele>
        <time>2019-10-06T10:17:28Z</time>
      </trkpt>
      <trkpt lat="50.47003" lon="1.75808">
        <ele>2.6</ele>
        <time>2019-10-06T10:17:35Z</time>
      </trkpt>
      <trkpt lat="50.47006" lon="1.75794">
        <ele>2.6</ele>
        <time>2019-10-06T10:17:51Z</time>
      </trkpt>
      <trkpt lat="50.47009" lon="1.75788">
        <ele>2.6</ele>
        <time>2019-10-06T10:17:57Z</time>
      </trkpt>
      <trkpt lat="50.47009" lon="1.75778">
        <ele>2.6</ele>
        <time>2019-10-06T10:18:05Z</time>
      </trkpt>
      <trkpt lat="50.4701" lon="1.7577">
        <ele>2.6</ele>
        <time>2019-10-06T10:18:09Z</time>
      </trkpt>
      <trkpt lat="50.47011" lon="1.7575">
        <ele>2.6</ele>
        <time>2019-10-06T10:18:21Z</time>
      </trkpt>
      <trkpt lat="50.47012" lon="1.75742">
        <ele>2.6</ele>
        <time>2019-10-06T10:18:27Z</time>
      </trkpt>
      <trkpt lat="50.47014" lon="1.75735">
        <ele>2.6</ele>
        <time>2019-10-06T10:18:31Z</time>
      </trkpt>
      <trkpt lat="50.47016" lon="1.75729">
        <ele>2.6</ele>
        <time>2019-10-06T10:18:36Z</time>
      </trkpt>
      <trkpt lat="50.47016" lon="1.75721">
        <ele>2.6</ele>
        <time>2019-10-06T10:18:43Z</time>
      </trkpt>
      <trkpt lat="50.47018" lon="1.75712">
        <ele>2.6</ele>
        <time>2019-10-06T10:18:47Z</time>
      </trkpt>
      <trkpt lat="50.4702" lon="1.75705">
        <ele>2.6</ele>
        <time>2019-10-06T10:18:51Z</time>
      </trkpt>
      <trkpt lat="50.47021" lon="1.75698">
        <ele>2.6</ele>
        <time>2019-10-06T10:18:57Z</time>
      </trkpt>
      <trkpt lat="50.47022" lon="1.75691">
        <ele>2.6</ele>
        <time>2019-10-06T10:19:02Z</time>
      </trkpt>
      <trkpt lat="50.47024" lon="1.75684">
        <ele>2.6</ele>
        <time>2019-10-06T10:19:07Z</time>
      </trkpt>
      <trkpt lat="50.47025" lon="1.75677">
        <ele>2.6</ele>
        <time>2019-10-06T10:19:12Z</time>
      </trkpt>
      <trkpt lat="50.47027" lon="1.7567">
        <ele>2.6</ele>
        <time>2019-10-06T10:19:18Z</time>
      </trkpt>
      <trkpt lat="50.47029" lon="1.75663">
        <ele>2.6</ele>
        <time>2019-10-06T10:19:23Z</time>
      </trkpt>
      <trkpt lat="50.47031" lon="1.75656">
        <ele>2.6</ele>
        <time>2019-10-06T10:19:26Z</time>
      </trkpt>
      <trkpt lat="50.47032" lon="1.75648">
        <ele>2.6</ele>
        <time>2019-10-06T10:19:29Z</time>
      </trkpt>
      <trkpt lat="50.47032" lon="1.7564">
        <ele>2.6</ele>
        <time>2019-10-06T10:19:32Z</time>
      </trkpt>
      <trkpt lat="50.47034" lon="1.75633">
        <ele>2.6</ele>
        <time>2019-10-06T10:19:36Z</time>
      </trkpt>
      <trkpt lat="50.47036" lon="1.75626">
        <ele>2.6</ele>
        <time>2019-10-06T10:19:41Z</time>
      </trkpt>
      <trkpt lat="50.47039" lon="1.75619">
        <ele>2.6</ele>
        <time>2019-10-06T10:19:45Z</time>
      </trkpt>
      <trkpt lat="50.47042" lon="1.75612">
        <ele>2.6</ele>
        <time>2019-10-06T10:19:49Z</time>
      </trkpt>
      <trkpt lat="50.47044" lon="1.75605">
        <ele>2.6</ele>
        <time>2019-10-06T10:19:54Z</time>
      </trkpt>
      <trkpt lat="50.47048" lon="1.756">
        <ele>2.6</ele>
        <time>2019-10-06T10:20:01Z</time>
      </trkpt>
      <trkpt lat="50.47051" lon="1.75593">
        <ele>2.6</ele>
        <time>2019-10-06T10:20:05Z</time>
      </trkpt>
      <trkpt lat="50.47053" lon="1.75586">
        <ele>2.6</ele>
        <time>2019-10-06T10:20:11Z</time>
      </trkpt>
      <trkpt lat="50.47057" lon="1.75582">
        <ele>2.6</ele>
        <time>2019-10-06T10:20:19Z</time>
      </trkpt>
      <trkpt lat="50.4706" lon="1.75577">
        <ele>2.6</ele>
        <time>2019-10-06T10:20:29Z</time>
      </trkpt>
      <trkpt lat="50.4706" lon="1.75569">
        <ele>2.6</ele>
        <time>2019-10-06T10:20:55Z</time>
      </trkpt>
      <trkpt lat="50.47064" lon="1.75564">
        <ele>2.6</ele>
        <time>2019-10-06T10:21:01Z</time>
      </trkpt>
      <trkpt lat="50.47066" lon="1.75557">
        <ele>2.6</ele>
        <time>2019-10-06T10:21:07Z</time>
      </trkpt>
      <trkpt lat="50.47069" lon="1.75551">
        <ele>2.6</ele>
        <time>2019-10-06T10:21:12Z</time>
      </trkpt>
      <trkpt lat="50.47073" lon="1.75545">
        <ele>2.6</ele>
        <time>2019-10-06T10:21:16Z</time>
      </trkpt>
      <trkpt lat="50.47076" lon="1.75539">
        <ele>2.6</ele>
        <time>2019-10-06T10:21:20Z</time>
      </trkpt>
      <trkpt lat="50.47081" lon="1.75536">
        <ele>2.6</ele>
        <time>2019-10-06T10:21:25Z</time>
      </trkpt>
      <trkpt lat="50.47085" lon="1.75536">
        <ele>2.6</ele>
        <time>2019-10-06T10:21:59Z</time>
      </trkpt>
      <trkpt lat="50.47089" lon="1.75533">
        <ele>2.6</ele>
        <time>2019-10-06T10:22:12Z</time>
      </trkpt>
      <trkpt lat="50.47094" lon="1.75531">
        <ele>2.6</ele>
        <time>2019-10-06T10:22:20Z</time>
      </trkpt>
      <trkpt lat="50.47097" lon="1.75525">
        <ele>2.6</ele>
        <time>2019-10-06T10:22:26Z</time>
      </trkpt>
      <trkpt lat="50.47101" lon="1.75522">
        <ele>2.6</ele>
        <time>2019-10-06T10:22:39Z</time>
      </trkpt>
      <trkpt lat="50.47106" lon="1.75521">
        <ele>2.6</ele>
        <time>2019-10-06T10:22:51Z</time>
      </trkpt>
      <trkpt lat="50.4711" lon="1.75522">
        <ele>2.6</ele>
        <time>2019-10-06T10:22:57Z</time>
      </trkpt>
      <trkpt lat="50.47113" lon="1.75529">
        <ele>2.6</ele>
        <time>2019-10-06T10:24:05Z</time>
      </trkpt>
      <trkpt lat="50.47118" lon="1.75528">
        <ele>2.6</ele>
        <time>2019-10-06T10:24:58Z</time>
      </trkpt>
      <trkpt lat="50.47122" lon="1.75531">
        <ele>2.6</ele>
        <time>2019-10-06T10:25:06Z</time>
      </trkpt>
      <trkpt lat="50.47126" lon="1.75533">
        <ele>2.6</ele>
        <time>2019-10-06T10:25:13Z</time>
      </trkpt>
      <trkpt lat="50.47129" lon="1.75538">
        <ele>2.6</ele>
        <time>2019-10-06T10:25:22Z</time>
      </trkpt>
      <trkpt lat="50.47134" lon="1.7554">
        <ele>2.6</ele>
        <time>2019-10-06T10:25:44Z</time>
      </trkpt>
      <trkpt lat="50.47136" lon="1.75546">
        <ele>2.6</ele>
        <time>2019-10-06T10:25:54Z</time>
      </trkpt>
      <trkpt lat="50.47138" lon="1.75553">
        <ele>2.6</ele>
        <time>2019-10-06T10:26:04Z</time>
      </trkpt>
      <trkpt lat="50.47134" lon="1.7555">
        <ele>2.6</ele>
        <time>2019-10-06T10:26:21Z</time>
      </trkpt>
      <trkpt lat="50.47131" lon="1.75544">
        <ele>2.6</ele>
        <time>2019-10-06T10:26:29Z</time>
      </trkpt>
      <trkpt lat="50.47126" lon="1.75541">
        <ele>2.6</ele>
        <time>2019-10-06T10:26:37Z</time>
      </trkpt>
      <trkpt lat="50.47123" lon="1.75535">
        <ele>2.6</ele>
        <time>2019-10-06T10:26:51Z</time>
      </trkpt>
      <trkpt lat="50.47119" lon="1.75534">
        <ele>2.6</ele>
        <time>2019-10-06T10:27:13Z</time>
      </trkpt>
      <trkpt lat="50.47114" lon="1.75531">
        <ele>2.6</ele>
        <time>2019-10-06T10:27:24Z</time>
      </trkpt>
      <trkpt lat="50.47109" lon="1.75531">
        <ele>2.6</ele>
        <time>2019-10-06T10:27:29Z</time>
      </trkpt>
      <trkpt lat="50.47104" lon="1.75529">
        <ele>2.6</ele>
        <time>2019-10-06T10:27:34Z</time>
      </trkpt>
      <trkpt lat="50.471" lon="1.75525">
        <ele>2.6</ele>
        <time>2019-10-06T10:27:41Z</time>
      </trkpt>
      <trkpt lat="50.47095" lon="1.75522">
        <ele>2.6</ele>
        <time>2019-10-06T10:27:48Z</time>
      </trkpt>
      <trkpt lat="50.47094" lon="1.75515">
        <ele>2.6</ele>
        <time>2019-10-06T10:28:02Z</time>
      </trkpt>
      <trkpt lat="50.47096" lon="1.75508">
        <ele>2.6</ele>
        <time>2019-10-06T10:28:13Z</time>
      </trkpt>
      <trkpt lat="50.47095" lon="1.755">
        <ele>2.6</ele>
        <time>2019-10-06T10:28:20Z</time>
      </trkpt>
      <trkpt lat="50.47095" lon="1.75492">
        <ele>2.6</ele>
        <time>2019-10-06T10:28:33Z</time>
      </trkpt>
      <trkpt lat="50.47095" lon="1.75485">
        <ele>2.6</ele>
        <time>2019-10-06T10:28:41Z</time>
      </trkpt>
      <trkpt lat="50.47098" lon="1.75479">
        <ele>2.6</ele>
        <time>2019-10-06T10:28:51Z</time>
      </trkpt>
      <trkpt lat="50.47103" lon="1.7548">
        <ele>2.6</ele>
        <time>2019-10-06T10:29:51Z</time>
      </trkpt>
      <trkpt lat="50.47106" lon="1.75476">
        <ele>2.6</ele>
        <time>2019-10-06T10:30:20Z</time>
      </trkpt>
      <trkpt lat="50.47111" lon="1.75475">
        <ele>2.6</ele>
        <time>2019-10-06T10:31:04Z</time>
      </trkpt>
      <trkpt lat="50.47115" lon="1.75472">
        <ele>2.6</ele>
        <time>2019-10-06T10:31:09Z</time>
      </trkpt>
      <trkpt lat="50.4712" lon="1.75467">
        <ele>2.6</ele>
        <time>2019-10-06T10:31:13Z</time>
      </trkpt>
      <trkpt lat="50.47125" lon="1.75465">
        <ele>2.6</ele>
        <time>2019-10-06T10:31:30Z</time>
      </trkpt>
      <trkpt lat="50.47127" lon="1.75459">
        <ele>2.6</ele>
        <time>2019-10-06T10:31:43Z</time>
      </trkpt>
      <trkpt lat="50.47129" lon="1.75453">
        <ele>2.6</ele>
        <time>2019-10-06T10:32:13Z</time>
      </trkpt>
      <trkpt lat="50.47133" lon="1.75457">
        <ele>2.6</ele>
        <time>2019-10-06T10:32:59Z</time>
      </trkpt>
      <trkpt lat="50.47131" lon="1.7545">
        <ele>2.6</ele>
        <time>2019-10-06T10:33:54Z</time>
      </trkpt>
      <trkpt lat="50.47128" lon="1.75444">
        <ele>2.6</ele>
        <time>2019-10-06T10:33:58Z</time>
      </trkpt>
      <trkpt lat="50.47125" lon="1.75439">
        <ele>2.6</ele>
        <time>2019-10-06T10:34:03Z</time>
      </trkpt>
      <trkpt lat="50.47122" lon="1.75432">
        <ele>2.6</ele>
        <time>2019-10-06T10:34:09Z</time>
      </trkpt>
      <trkpt lat="50.4712" lon="1.75425">
        <ele>2.6</ele>
        <time>2019-10-06T10:34:16Z</time>
      </trkpt>
      <trkpt lat="50.47118" lon="1.75417">
        <ele>2.6</ele>
        <time>2019-10-06T10:34:21Z</time>
      </trkpt>
      <trkpt lat="50.47117" lon="1.75409">
        <ele>2.6</ele>
        <time>2019-10-06T10:34:25Z</time>
      </trkpt>
      <trkpt lat="50.47117" lon="1.75402">
        <ele>2.6</ele>
        <time>2019-10-06T10:34:29Z</time>
      </trkpt>
      <trkpt lat="50.47117" lon="1.75394">
        <ele>2.6</ele>
        <time>2019-10-06T10:34:32Z</time>
      </trkpt>
      <trkpt lat="50.47117" lon="1.75387">
        <ele>2.6</ele>
        <time>2019-10-06T10:34:35Z</time>
      </trkpt>
      <trkpt lat="50.47114" lon="1.7538">
        <ele>2.6</ele>
        <time>2019-10-06T10:34:40Z</time>
      </trkpt>
      <trkpt lat="50.47113" lon="1.75373">
        <ele>2.6</ele>
        <time>2019-10-06T10:34:44Z</time>
      </trkpt>
      <trkpt lat="50.47112" lon="1.75365">
        <ele>2.6</ele>
        <time>2019-10-06T10:34:49Z</time>
      </trkpt>
      <trkpt lat="50.47111" lon="1.75358">
        <ele>2.6</ele>
        <time>2019-10-06T10:35:05Z</time>
      </trkpt>
      <trkpt lat="50.47113" lon="1.75351">
        <ele>2.6</ele>
        <time>2019-10-06T10:35:18Z</time>
      </trkpt>
      <trkpt lat="50.47112" lon="1.75344">
        <ele>2.6</ele>
        <time>2019-10-06T10:35:25Z</time>
      </trkpt>
      <trkpt lat="50.47111" lon="1.75336">
        <ele>2.6</ele>
        <time>2019-10-06T10:35:31Z</time>
      </trkpt>
      <trkpt lat="50.47109" lon="1.75329">
        <ele>2.6</ele>
        <time>2019-10-06T10:35:35Z</time>
      </trkpt>
      <trkpt lat="50.47107" lon="1.75322">
        <ele>2.6</ele>
        <time>2019-10-06T10:35:41Z</time>
      </trkpt>
      <trkpt lat="50.47107" lon="1.75315">
        <ele>2.6</ele>
        <time>2019-10-06T10:35:46Z</time>
      </trkpt>
      <trkpt lat="50.47109" lon="1.75306">
        <ele>2.6</ele>
        <time>2019-10-06T10:35:52Z</time>
      </trkpt>
      <trkpt lat="50.47111" lon="1.75298">
        <ele>2.6</ele>
        <time>2019-10-06T10:35:57Z</time>
      </trkpt>
      <trkpt lat="50.47112" lon="1.75291">
        <ele>2.6</ele>
        <time>2019-10-06T10:36:03Z</time>
      </trkpt>
      <trkpt lat="50.47114" lon="1.75283">
        <ele>2.6</ele>
        <time>2019-10-06T10:36:08Z</time>
      </trkpt>
      <trkpt lat="50.47117" lon="1.75276">
        <ele>2.6</ele>
        <time>2019-10-06T10:36:13Z</time>
      </trkpt>
      <trkpt lat="50.47119" lon="1.7527">
        <ele>2.6</ele>
        <time>2019-10-06T10:36:18Z</time>
      </trkpt>
      <trkpt lat="50.47122" lon="1.75264">
        <ele>2.6</ele>
        <time>2019-10-06T10:36:23Z</time>
      </trkpt>
      <trkpt lat="50.47124" lon="1.75257">
        <ele>2.6</ele>
        <time>2019-10-06T10:36:26Z</time>
      </trkpt>
      <trkpt lat="50.47126" lon="1.7525">
        <ele>2.6</ele>
        <time>2019-10-06T10:36:31Z</time>
      </trkpt>
      <trkpt lat="50.47127" lon="1.75243">
        <ele>2.6</ele>
        <time>2019-10-06T10:36:36Z</time>
      </trkpt>
      <trkpt lat="50.47128" lon="1.75235">
        <ele>2.6</ele>
        <time>2019-10-06T10:36:40Z</time>
      </trkpt>
      <trkpt lat="50.47129" lon="1.75227">
        <ele>2.6</ele>
        <time>2019-10-06T10:36:44Z</time>
      </trkpt>
      <trkpt lat="50.47127" lon="1.7522">
        <ele>2.6</ele>
        <time>2019-10-06T10:36:48Z</time>
      </trkpt>
      <trkpt lat="50.47123" lon="1.75214">
        <ele>2.6</ele>
        <time>2019-10-06T10:36:51Z</time>
      </trkpt>
      <trkpt lat="50.47118" lon="1.7521">
        <ele>2.6</ele>
        <time>2019-10-06T10:36:55Z</time>
      </trkpt>
      <trkpt lat="50.47113" lon="1.75206">
        <ele>2.6</ele>
        <time>2019-10-06T10:36:59Z</time>
      </trkpt>
      <trkpt lat="50.4711" lon="1.75201">
        <ele>2.6</ele>
        <time>2019-10-06T10:37:02Z</time>
      </trkpt>
      <trkpt lat="50.47105" lon="1.75196">
        <ele>2.6</ele>
        <time>2019-10-06T10:37:07Z</time>
      </trkpt>
      <trkpt lat="50.47101" lon="1.7519">
        <ele>2.6</ele>
        <time>2019-10-06T10:37:11Z</time>
      </trkpt>
      <trkpt lat="50.47097" lon="1.75186">
        <ele>2.6</ele>
        <time>2019-10-06T10:37:15Z</time>
      </trkpt>
      <trkpt lat="50.47093" lon="1.75181">
        <ele>2.6</ele>
        <time>2019-10-06T10:37:20Z</time>
      </trkpt>
      <trkpt lat="50.47092" lon="1.75173">
        <ele>2.6</ele>
        <time>2019-10-06T10:37:24Z</time>
      </trkpt>
      <trkpt lat="50.4709" lon="1.75167">
        <ele>2.6</ele>
        <time>2019-10-06T10:37:29Z</time>
      </trkpt>
      <trkpt lat="50.47086" lon="1.75161">
        <ele>2.6</ele>
        <time>2019-10-06T10:37:35Z</time>
      </trkpt>
      <trkpt lat="50.47081" lon="1.75157">
        <ele>2.6</ele>
        <time>2019-10-06T10:37:40Z</time>
      </trkpt>
      <trkpt lat="50.47077" lon="1.75151">
        <ele>2.6</ele>
        <time>2019-10-06T10:37:44Z</time>
      </trkpt>
      <trkpt lat="50.47072" lon="1.75152">
        <ele>2.6</ele>
        <time>2019-10-06T10:38:00Z</time>
      </trkpt>
      <trkpt lat="50.47067" lon="1.7515">
        <ele>2.6</ele>
        <time>2019-10-06T10:38:07Z</time>
      </trkpt>
      <trkpt lat="50.47063" lon="1.7515">
        <ele>2.6</ele>
        <time>2019-10-06T10:38:16Z</time>
      </trkpt>
      <trkpt lat="50.47062" lon="1.75157">
        <ele>2.6</ele>
        <time>2019-10-06T10:38:34Z</time>
      </trkpt>
      <trkpt lat="50.47057" lon="1.75156">
        <ele>2.6</ele>
        <time>2019-10-06T10:38:39Z</time>
      </trkpt>
      <trkpt lat="50.47053" lon="1.75154">
        <ele>2.6</ele>
        <time>2019-10-06T10:38:45Z</time>
      </trkpt>
      <trkpt lat="50.47048" lon="1.75152">
        <ele>2.6</ele>
        <time>2019-10-06T10:38:58Z</time>
      </trkpt>
      <trkpt lat="50.47044" lon="1.75154">
        <ele>2.6</ele>
        <time>2019-10-06T10:39:18Z</time>
      </trkpt>
      <trkpt lat="50.47039" lon="1.75156">
        <ele>2.6</ele>
        <time>2019-10-06T10:39:24Z</time>
      </trkpt>
      <trkpt lat="50.47035" lon="1.7516">
        <ele>2.6</ele>
        <time>2019-10-06T10:39:31Z</time>
      </trkpt>
      <trkpt lat="50.4703" lon="1.75162">
        <ele>2.6</ele>
        <time>2019-10-06T10:39:38Z</time>
      </trkpt>
      <trkpt lat="50.47026" lon="1.75163">
        <ele>2.6</ele>
        <time>2019-10-06T10:39:42Z</time>
      </trkpt>
      <trkpt lat="50.47021" lon="1.75164">
        <ele>2.6</ele>
        <time>2019-10-06T10:39:45Z</time>
      </trkpt>
      <trkpt lat="50.47016" lon="1.75163">
        <ele>2.6</ele>
        <time>2019-10-06T10:39:51Z</time>
      </trkpt>
      <trkpt lat="50.47011" lon="1.75166">
        <ele>2.6</ele>
        <time>2019-10-06T10:40:09Z</time>
      </trkpt>
      <trkpt lat="50.47006" lon="1.75164">
        <ele>2.6</ele>
        <time>2019-10-06T10:40:15Z</time>
      </trkpt>
      <trkpt lat="50.47001" lon="1.75165">
        <ele>2.6</ele>
        <time>2019-10-06T10:40:19Z</time>
      </trkpt>
      <trkpt lat="50.47001" lon="1.75172">
        <ele>2.6</ele>
        <time>2019-10-06T10:40:38Z</time>
      </trkpt>
      <trkpt lat="50.47003" lon="1.75179">
        <ele>2.6</ele>
        <time>2019-10-06T10:40:48Z</time>
      </trkpt>
      <trkpt lat="50.47003" lon="1.75187">
        <ele>2.6</ele>
        <time>2019-10-06T10:40:56Z</time>
      </trkpt>
      <trkpt lat="50.47007" lon="1.75187">
        <ele>2.6</ele>
        <time>2019-10-06T10:43:17Z</time>
      </trkpt>
      <trkpt lat="50.47003" lon="1.75185">
        <ele>2.6</ele>
        <time>2019-10-06T10:44:03Z</time>
      </trkpt>
      <trkpt lat="50.47001" lon="1.75191">
        <ele>2.6</ele>
        <time>2019-10-06T10:44:50Z</time>
      </trkpt>
      <trkpt lat="50.47005" lon="1.75195">
        <ele>2.6</ele>
        <time>2019-10-06T10:44:58Z</time>
      </trkpt>
      <trkpt lat="50.47007" lon="1.75202">
        <ele>2.6</ele>
        <time>2019-10-06T10:45:08Z</time>
      </trkpt>
      <trkpt lat="50.47008" lon="1.75209">
        <ele>2.6</ele>
        <time>2019-10-06T10:45:14Z</time>
      </trkpt>
      <trkpt lat="50.47008" lon="1.75216">
        <ele>2.6</ele>
        <time>2019-10-06T10:45:19Z</time>
      </trkpt>
      <trkpt lat="50.47007" lon="1.75224">
        <ele>2.6</ele>
        <time>2019-10-06T10:45:23Z</time>
      </trkpt>
      <trkpt lat="50.47006" lon="1.75232">
        <ele>2.6</ele>
        <time>2019-10-06T10:45:28Z</time>
      </trkpt>
      <trkpt lat="50.47006" lon="1.75239">
        <ele>2.6</ele>
        <time>2019-10-06T10:45:32Z</time>
      </trkpt>
      <trkpt lat="50.47008" lon="1.75247">
        <ele>2.6</ele>
        <time>2019-10-06T10:45:37Z</time>
      </trkpt>
      <trkpt lat="50.4701" lon="1.75255">
        <ele>2.6</ele>
        <time>2019-10-06T10:45:43Z</time>
      </trkpt>
      <trkpt lat="50.4701" lon="1.75262">
        <ele>2.6</ele>
        <time>2019-10-06T10:45:47Z</time>
      </trkpt>
      <trkpt lat="50.47011" lon="1.7527">
        <ele>2.6</ele>
        <time>2019-10-06T10:45:51Z</time>
      </trkpt>
      <trkpt lat="50.47014" lon="1.75278">
        <ele>2.6</ele>
        <time>2019-10-06T10:45:55Z</time>
      </trkpt>
      <trkpt lat="50.47017" lon="1.75286">
        <ele>2.6</ele>
        <time>2019-10-06T10:45:59Z</time>
      </trkpt>
      <trkpt lat="50.47018" lon="1.75294">
        <ele>2.6</ele>
        <time>2019-10-06T10:46:03Z</time>
      </trkpt>
      <trkpt lat="50.47018" lon="1.75301">
        <ele>2.6</ele>
        <time>2019-10-06T10:46:08Z</time>
      </trkpt>
      <trkpt lat="50.4702" lon="1.75307">
        <ele>2.6</ele>
        <time>2019-10-06T10:46:27Z</time>
      </trkpt>
      <trkpt lat="50.4702" lon="1.75315">
        <ele>2.6</ele>
        <time>2019-10-06T10:46:34Z</time>
      </trkpt>
      <trkpt lat="50.4702" lon="1.75322">
        <ele>2.6</ele>
        <time>2019-10-06T10:46:38Z</time>
      </trkpt>
      <trkpt lat="50.47018" lon="1.75329">
        <ele>2.6</ele>
        <time>2019-10-06T10:46:42Z</time>
      </trkpt>
      <trkpt lat="50.47018" lon="1.75338">
        <ele>2.6</ele>
        <time>2019-10-06T10:46:47Z</time>
      </trkpt>
      <trkpt lat="50.47017" lon="1.75346">
        <ele>2.6</ele>
        <time>2019-10-06T10:46:51Z</time>
      </trkpt>
      <trkpt lat="50.47018" lon="1.75354">
        <ele>2.6</ele>
        <time>2019-10-06T10:46:56Z</time>
      </trkpt>
      <trkpt lat="50.47017" lon="1.75363">
        <ele>2.6</ele>
        <time>2019-10-06T10:47:00Z</time>
      </trkpt>
      <trkpt lat="50.47016" lon="1.7537">
        <ele>2.6</ele>
        <time>2019-10-06T10:47:03Z</time>
      </trkpt>
      <trkpt lat="50.47014" lon="1.75378">
        <ele>2.6</ele>
        <time>2019-10-06T10:47:07Z</time>
      </trkpt>
      <trkpt lat="50.47013" lon="1.75386">
        <ele>2.6</ele>
        <time>2019-10-06T10:47:11Z</time>
      </trkpt>
      <trkpt lat="50.47012" lon="1.75394">
        <ele>2.6</ele>
        <time>2019-10-06T10:47:14Z</time>
      </trkpt>
      <trkpt lat="50.47009" lon="1.754">
        <ele>2.6</ele>
        <time>2019-10-06T10:47:18Z</time>
      </trkpt>
      <trkpt lat="50.47006" lon="1.75407">
        <ele>2.6</ele>
        <time>2019-10-06T10:47:23Z</time>
      </trkpt>
      <trkpt lat="50.47002" lon="1.75408">
        <ele>2.6</ele>
        <time>2019-10-06T10:47:29Z</time>
      </trkpt>
      <trkpt lat="50.46997" lon="1.75409">
        <ele>2.6</ele>
        <time>2019-10-06T10:47:35Z</time>
      </trkpt>
      <trkpt lat="50.46993" lon="1.75413">
        <ele>2.6</ele>
        <time>2019-10-06T10:47:40Z</time>
      </trkpt>
      <trkpt lat="50.46989" lon="1.75417">
        <ele>2.6</ele>
        <time>2019-10-06T10:47:44Z</time>
      </trkpt>
      <trkpt lat="50.46984" lon="1.75419">
        <ele>2.6</ele>
        <time>2019-10-06T10:47:49Z</time>
      </trkpt>
      <trkpt lat="50.46979" lon="1.75421">
        <ele>2.6</ele>
        <time>2019-10-06T10:47:53Z</time>
      </trkpt>
      <trkpt lat="50.46974" lon="1.75422">
        <ele>2.7</ele>
        <time>2019-10-06T10:47:59Z</time>
      </trkpt>
      <trkpt lat="50.46969" lon="1.75425">
        <ele>3.2</ele>
        <time>2019-10-06T10:48:04Z</time>
      </trkpt>
      <trkpt lat="50.46964" lon="1.75431">
        <ele>3.9</ele>
        <time>2019-10-06T10:48:09Z</time>
      </trkpt>
      <trkpt lat="50.46961" lon="1.75436">
        <ele>4.5</ele>
        <time>2019-10-06T10:48:13Z</time>
      </trkpt>
      <trkpt lat="50.46957" lon="1.75442">
        <ele>5.2</ele>
        <time>2019-10-06T10:48:18Z</time>
      </trkpt>
      <trkpt lat="50.46953" lon="1.75447">
        <ele>6.2</ele>
        <time>2019-10-06T10:48:24Z</time>
      </trkpt>
      <trkpt lat="50.4695" lon="1.75451">
        <ele>6.7</ele>
        <time>2019-10-06T10:48:28Z</time>
      </trkpt>
      <trkpt lat="50.46945" lon="1.75455">
        <ele>7.4</ele>
        <time>2019-10-06T10:48:33Z</time>
      </trkpt>
      <trkpt lat="50.46941" lon="1.75457">
        <ele>9</ele>
        <time>2019-10-06T10:48:44Z</time>
      </trkpt>
      <trkpt lat="50.46936" lon="1.75461">
        <ele>9.6</ele>
        <time>2019-10-06T10:48:49Z</time>
      </trkpt>
      <trkpt lat="50.46932" lon="1.75466">
        <ele>10.1</ele>
        <time>2019-10-06T10:48:54Z</time>
      </trkpt>
      <trkpt lat="50.4693" lon="1.75473">
        <ele>10.4</ele>
        <time>2019-10-06T10:49:00Z</time>
      </trkpt>
      <trkpt lat="50.46927" lon="1.75479">
        <ele>10.6</ele>
        <time>2019-10-06T10:49:05Z</time>
      </trkpt>
      <trkpt lat="50.46923" lon="1.75485">
        <ele>10.7</ele>
        <time>2019-10-06T10:49:12Z</time>
      </trkpt>
      <trkpt lat="50.4692" lon="1.7549">
        <ele>11.4</ele>
        <time>2019-10-06T10:49:22Z</time>
      </trkpt>
      <trkpt lat="50.46917" lon="1.75494">
        <ele>12.4</ele>
        <time>2019-10-06T10:49:33Z</time>
      </trkpt>
      <trkpt lat="50.46912" lon="1.75496">
        <ele>13</ele>
        <time>2019-10-06T10:49:40Z</time>
      </trkpt>
      <trkpt lat="50.46908" lon="1.75499">
        <ele>13.1</ele>
        <time>2019-10-06T10:49:44Z</time>
      </trkpt>
      <trkpt lat="50.46903" lon="1.75502">
        <ele>13</ele>
        <time>2019-10-06T10:49:47Z</time>
      </trkpt>
      <trkpt lat="50.46898" lon="1.75505">
        <ele>12.7</ele>
        <time>2019-10-06T10:49:51Z</time>
      </trkpt>
      <trkpt lat="50.46894" lon="1.75508">
        <ele>12.1</ele>
        <time>2019-10-06T10:49:57Z</time>
      </trkpt>
      <trkpt lat="50.46891" lon="1.75514">
        <ele>10.6</ele>
        <time>2019-10-06T10:50:16Z</time>
      </trkpt>
      <trkpt lat="50.46889" lon="1.75521">
        <ele>10.3</ele>
        <time>2019-10-06T10:50:25Z</time>
      </trkpt>
      <trkpt lat="50.46887" lon="1.75528">
        <ele>10</ele>
        <time>2019-10-06T10:50:30Z</time>
      </trkpt>
      <trkpt lat="50.46886" lon="1.75536">
        <ele>9.8</ele>
        <time>2019-10-06T10:50:34Z</time>
      </trkpt>
      <trkpt lat="50.46885" lon="1.75543">
        <ele>9.5</ele>
        <time>2019-10-06T10:50:39Z</time>
      </trkpt>
      <trkpt lat="50.46884" lon="1.7555">
        <ele>9.3</ele>
        <time>2019-10-06T10:50:44Z</time>
      </trkpt>
      <trkpt lat="50.46883" lon="1.75558">
        <ele>9.5</ele>
        <time>2019-10-06T10:50:48Z</time>
      </trkpt>
      <trkpt lat="50.46881" lon="1.75565">
        <ele>9.7</ele>
        <time>2019-10-06T10:50:54Z</time>
      </trkpt>
      <trkpt lat="50.46879" lon="1.75573">
        <ele>9.8</ele>
        <time>2019-10-06T10:51:00Z</time>
      </trkpt>
      <trkpt lat="50.46878" lon="1.7558">
        <ele>9.9</ele>
        <time>2019-10-06T10:51:06Z</time>
      </trkpt>
      <trkpt lat="50.46877" lon="1.75587">
        <ele>10</ele>
        <time>2019-10-06T10:51:11Z</time>
      </trkpt>
      <trkpt lat="50.46876" lon="1.75595">
        <ele>10.2</ele>
        <time>2019-10-06T10:51:16Z</time>
      </trkpt>
      <trkpt lat="50.46874" lon="1.75603">
        <ele>10.2</ele>
        <time>2019-10-06T10:51:23Z</time>
      </trkpt>
      <trkpt lat="50.46873" lon="1.7561">
        <ele>10.3</ele>
        <time>2019-10-06T10:51:27Z</time>
      </trkpt>
      <trkpt lat="50.46871" lon="1.75617">
        <ele>10.5</ele>
        <time>2019-10-06T10:51:31Z</time>
      </trkpt>
      <trkpt lat="50.46868" lon="1.75624">
        <ele>10.7</ele>
        <time>2019-10-06T10:51:36Z</time>
      </trkpt>
      <trkpt lat="50.46868" lon="1.75631">
        <ele>11</ele>
        <time>2019-10-06T10:51:48Z</time>
      </trkpt>
      <trkpt lat="50.46863" lon="1.75631">
        <ele>9.9</ele>
        <time>2019-10-06T10:52:27Z</time>
      </trkpt>
      <trkpt lat="50.4686" lon="1.75637">
        <ele>10.3</ele>
        <time>2019-10-06T10:52:45Z</time>
      </trkpt>
      <trkpt lat="50.46857" lon="1.75642">
        <ele>10.8</ele>
        <time>2019-10-06T10:52:51Z</time>
      </trkpt>
      <trkpt lat="50.46852" lon="1.75646">
        <ele>11.5</ele>
        <time>2019-10-06T10:52:57Z</time>
      </trkpt>
      <trkpt lat="50.46848" lon="1.75649">
        <ele>11.9</ele>
        <time>2019-10-06T10:53:04Z</time>
      </trkpt>
      <trkpt lat="50.46844" lon="1.75653">
        <ele>12.2</ele>
        <time>2019-10-06T10:53:10Z</time>
      </trkpt>
      <trkpt lat="50.4684" lon="1.75658">
        <ele>12.4</ele>
        <time>2019-10-06T10:53:15Z</time>
      </trkpt>
      <trkpt lat="50.46835" lon="1.75662">
        <ele>12.7</ele>
        <time>2019-10-06T10:53:20Z</time>
      </trkpt>
      <trkpt lat="50.46831" lon="1.75666">
        <ele>12.9</ele>
        <time>2019-10-06T10:53:25Z</time>
      </trkpt>
      <trkpt lat="50.46827" lon="1.7567">
        <ele>13</ele>
        <time>2019-10-06T10:53:31Z</time>
      </trkpt>
      <trkpt lat="50.46823" lon="1.75674">
        <ele>13.2</ele>
        <time>2019-10-06T10:53:36Z</time>
      </trkpt>
      <trkpt lat="50.4682" lon="1.75679">
        <ele>13.3</ele>
        <time>2019-10-06T10:53:40Z</time>
      </trkpt>
      <trkpt lat="50.46816" lon="1.75683">
        <ele>13.6</ele>
        <time>2019-10-06T10:53:45Z</time>
      </trkpt>
      <trkpt lat="50.46811" lon="1.75688">
        <ele>14</ele>
        <time>2019-10-06T10:53:49Z</time>
      </trkpt>
      <trkpt lat="50.46807" lon="1.75693">
        <ele>14.4</ele>
        <time>2019-10-06T10:53:54Z</time>
      </trkpt>
      <trkpt lat="50.46803" lon="1.75699">
        <ele>15.2</ele>
        <time>2019-10-06T10:54:00Z</time>
      </trkpt>
      <trkpt lat="50.46799" lon="1.75702">
        <ele>15.7</ele>
        <time>2019-10-06T10:54:05Z</time>
      </trkpt>
      <trkpt lat="50.46794" lon="1.75704">
        <ele>16.4</ele>
        <time>2019-10-06T10:54:11Z</time>
      </trkpt>
      <trkpt lat="50.4679" lon="1.75706">
        <ele>16.9</ele>
        <time>2019-10-06T10:54:17Z</time>
      </trkpt>
      <trkpt lat="50.46786" lon="1.75711">
        <ele>17.4</ele>
        <time>2019-10-06T10:54:26Z</time>
      </trkpt>
      <trkpt lat="50.46787" lon="1.75718">
        <ele>18.5</ele>
        <time>2019-10-06T10:55:00Z</time>
      </trkpt>
      <trkpt lat="50.46782" lon="1.75717">
        <ele>19.7</ele>
        <time>2019-10-06T10:55:27Z</time>
      </trkpt>
      <trkpt lat="50.46778" lon="1.7572">
        <ele>19.8</ele>
        <time>2019-10-06T10:55:34Z</time>
      </trkpt>
      <trkpt lat="50.46774" lon="1.75725">
        <ele>20.1</ele>
        <time>2019-10-06T10:55:39Z</time>
      </trkpt>
      <trkpt lat="50.4677" lon="1.75728">
        <ele>20.3</ele>
        <time>2019-10-06T10:55:44Z</time>
      </trkpt>
      <trkpt lat="50.46765" lon="1.7573">
        <ele>20.6</ele>
        <time>2019-10-06T10:55:51Z</time>
      </trkpt>
      <trkpt lat="50.46762" lon="1.75734">
        <ele>21</ele>
        <time>2019-10-06T10:55:57Z</time>
      </trkpt>
      <trkpt lat="50.46759" lon="1.7574">
        <ele>21.3</ele>
        <time>2019-10-06T10:56:01Z</time>
      </trkpt>
      <trkpt lat="50.46755" lon="1.75745">
        <ele>21.6</ele>
        <time>2019-10-06T10:56:06Z</time>
      </trkpt>
      <trkpt lat="50.46751" lon="1.75751">
        <ele>22</ele>
        <time>2019-10-06T10:56:11Z</time>
      </trkpt>
      <trkpt lat="50.46748" lon="1.75756">
        <ele>23</ele>
        <time>2019-10-06T10:56:24Z</time>
      </trkpt>
      <trkpt lat="50.46744" lon="1.7576">
        <ele>23.8</ele>
        <time>2019-10-06T10:56:33Z</time>
      </trkpt>
      <trkpt lat="50.4674" lon="1.75764">
        <ele>24.7</ele>
        <time>2019-10-06T10:56:42Z</time>
      </trkpt>
      <trkpt lat="50.46734" lon="1.75762">
        <ele>24.9</ele>
        <time>2019-10-06T10:56:47Z</time>
      </trkpt>
      <trkpt lat="50.4673" lon="1.75759">
        <ele>25</ele>
        <time>2019-10-06T10:56:51Z</time>
      </trkpt>
      <trkpt lat="50.46725" lon="1.75754">
        <ele>25</ele>
        <time>2019-10-06T10:56:55Z</time>
      </trkpt>
      <trkpt lat="50.46721" lon="1.7575">
        <ele>24.8</ele>
        <time>2019-10-06T10:57:00Z</time>
      </trkpt>
      <trkpt lat="50.46716" lon="1.75747">
        <ele>24.5</ele>
        <time>2019-10-06T10:57:04Z</time>
      </trkpt>
      <trkpt lat="50.46712" lon="1.75744">
        <ele>24.3</ele>
        <time>2019-10-06T10:57:08Z</time>
      </trkpt>
      <trkpt lat="50.46707" lon="1.75743">
        <ele>24.5</ele>
        <time>2019-10-06T10:57:15Z</time>
      </trkpt>
      <trkpt lat="50.46703" lon="1.75739">
        <ele>25.2</ele>
        <time>2019-10-06T10:57:24Z</time>
      </trkpt>
      <trkpt lat="50.46699" lon="1.75735">
        <ele>25.6</ele>
        <time>2019-10-06T10:57:31Z</time>
      </trkpt>
      <trkpt lat="50.46695" lon="1.7573">
        <ele>25.7</ele>
        <time>2019-10-06T10:57:38Z</time>
      </trkpt>
      <trkpt lat="50.46692" lon="1.75725">
        <ele>25.8</ele>
        <time>2019-10-06T10:57:44Z</time>
      </trkpt>
      <trkpt lat="50.46687" lon="1.75721">
        <ele>25.7</ele>
        <time>2019-10-06T10:57:49Z</time>
      </trkpt>
      <trkpt lat="50.46682" lon="1.75723">
        <ele>25.5</ele>
        <time>2019-10-06T10:57:54Z</time>
      </trkpt>
      <trkpt lat="50.46681" lon="1.75731">
        <ele>25.2</ele>
        <time>2019-10-06T10:57:59Z</time>
      </trkpt>
      <trkpt lat="50.46681" lon="1.7574">
        <ele>24.9</ele>
        <time>2019-10-06T10:58:03Z</time>
      </trkpt>
      <trkpt lat="50.4668" lon="1.75748">
        <ele>24.6</ele>
        <time>2019-10-06T10:58:07Z</time>
      </trkpt>
      <trkpt lat="50.46679" lon="1.75755">
        <ele>24.4</ele>
        <time>2019-10-06T10:58:12Z</time>
      </trkpt>
      <trkpt lat="50.46677" lon="1.75763">
        <ele>24.1</ele>
        <time>2019-10-06T10:58:19Z</time>
      </trkpt>
      <trkpt lat="50.46676" lon="1.7577">
        <ele>23.6</ele>
        <time>2019-10-06T10:58:24Z</time>
      </trkpt>
      <trkpt lat="50.46675" lon="1.75776">
        <ele>22.9</ele>
        <time>2019-10-06T10:58:30Z</time>
      </trkpt>
      <trkpt lat="50.46672" lon="1.75783">
        <ele>22.3</ele>
        <time>2019-10-06T10:58:35Z</time>
      </trkpt>
      <trkpt lat="50.4667" lon="1.75789">
        <ele>21.6</ele>
        <time>2019-10-06T10:58:40Z</time>
      </trkpt>
      <trkpt lat="50.46666" lon="1.75795">
        <ele>21.3</ele>
        <time>2019-10-06T10:58:44Z</time>
      </trkpt>
      <trkpt lat="50.46663" lon="1.75802">
        <ele>21.2</ele>
        <time>2019-10-06T10:58:48Z</time>
      </trkpt>
      <trkpt lat="50.4666" lon="1.75808">
        <ele>21.3</ele>
        <time>2019-10-06T10:58:52Z</time>
      </trkpt>
      <trkpt lat="50.46658" lon="1.75815">
        <ele>21.5</ele>
        <time>2019-10-06T10:59:01Z</time>
      </trkpt>
      <trkpt lat="50.46657" lon="1.75823">
        <ele>21.8</ele>
        <time>2019-10-06T10:59:05Z</time>
      </trkpt>
      <trkpt lat="50.46656" lon="1.75831">
        <ele>22.5</ele>
        <time>2019-10-06T10:59:10Z</time>
      </trkpt>
      <trkpt lat="50.46654" lon="1.75839">
        <ele>23.5</ele>
        <time>2019-10-06T10:59:16Z</time>
      </trkpt>
      <trkpt lat="50.46651" lon="1.75845">
        <ele>24</ele>
        <time>2019-10-06T10:59:20Z</time>
      </trkpt>
      <trkpt lat="50.46649" lon="1.75852">
        <ele>24.3</ele>
        <time>2019-10-06T10:59:24Z</time>
      </trkpt>
      <trkpt lat="50.46647" lon="1.75859">
        <ele>24.5</ele>
        <time>2019-10-06T10:59:28Z</time>
      </trkpt>
      <trkpt lat="50.46644" lon="1.75863">
        <ele>24.7</ele>
        <time>2019-10-06T10:59:33Z</time>
      </trkpt>
      <trkpt lat="50.46639" lon="1.75868">
        <ele>24.8</ele>
        <time>2019-10-06T10:59:38Z</time>
      </trkpt>
      <trkpt lat="50.46636" lon="1.75874">
        <ele>24.8</ele>
        <time>2019-10-06T10:59:43Z</time>
      </trkpt>
      <trkpt lat="50.46632" lon="1.75877">
        <ele>24.9</ele>
        <time>2019-10-06T10:59:47Z</time>
      </trkpt>
      <trkpt lat="50.46627" lon="1.7588">
        <ele>24.9</ele>
        <time>2019-10-06T10:59:52Z</time>
      </trkpt>
      <trkpt lat="50.46622" lon="1.75884">
        <ele>24.8</ele>
        <time>2019-10-06T10:59:57Z</time>
      </trkpt>
      <trkpt lat="50.46617" lon="1.75887">
        <ele>24.7</ele>
        <time>2019-10-06T11:00:02Z</time>
      </trkpt>
      <trkpt lat="50.46612" lon="1.75889">
        <ele>24.8</ele>
        <time>2019-10-06T11:00:06Z</time>
      </trkpt>
      <trkpt lat="50.46608" lon="1.75892">
        <ele>25.1</ele>
        <time>2019-10-06T11:00:11Z</time>
      </trkpt>
      <trkpt lat="50.46604" lon="1.75896">
        <ele>25.6</ele>
        <time>2019-10-06T11:00:17Z</time>
      </trkpt>
      <trkpt lat="50.46599" lon="1.75898">
        <ele>26.7</ele>
        <time>2019-10-06T11:00:25Z</time>
      </trkpt>
      <trkpt lat="50.46595" lon="1.75901">
        <ele>27.2</ele>
        <time>2019-10-06T11:00:29Z</time>
      </trkpt>
      <trkpt lat="50.4659" lon="1.75904">
        <ele>27.8</ele>
        <time>2019-10-06T11:00:35Z</time>
      </trkpt>
      <trkpt lat="50.46586" lon="1.75909">
        <ele>28.5</ele>
        <time>2019-10-06T11:00:43Z</time>
      </trkpt>
      <trkpt lat="50.46581" lon="1.75912">
        <ele>29.1</ele>
        <time>2019-10-06T11:00:50Z</time>
      </trkpt>
      <trkpt lat="50.46576" lon="1.75914">
        <ele>29.6</ele>
        <time>2019-10-06T11:00:55Z</time>
      </trkpt>
      <trkpt lat="50.46572" lon="1.75918">
        <ele>30.1</ele>
        <time>2019-10-06T11:01:03Z</time>
      </trkpt>
      <trkpt lat="50.46568" lon="1.75923">
        <ele>30.4</ele>
        <time>2019-10-06T11:01:08Z</time>
      </trkpt>
      <trkpt lat="50.46566" lon="1.75929">
        <ele>30.7</ele>
        <time>2019-10-06T11:01:13Z</time>
      </trkpt>
      <trkpt lat="50.46562" lon="1.75933">
        <ele>31.5</ele>
        <time>2019-10-06T11:01:20Z</time>
      </trkpt>
      <trkpt lat="50.46557" lon="1.75933">
        <ele>33</ele>
        <time>2019-10-06T11:01:36Z</time>
      </trkpt>
      <trkpt lat="50.46553" lon="1.75939">
        <ele>33.4</ele>
        <time>2019-10-06T11:01:40Z</time>
      </trkpt>
      <trkpt lat="50.4655" lon="1.75945">
        <ele>33.8</ele>
        <time>2019-10-06T11:01:44Z</time>
      </trkpt>
      <trkpt lat="50.46549" lon="1.75952">
        <ele>34.2</ele>
        <time>2019-10-06T11:01:49Z</time>
      </trkpt>
      <trkpt lat="50.46553" lon="1.75957">
        <ele>33.8</ele>
        <time>2019-10-06T11:02:07Z</time>
      </trkpt>
      <trkpt lat="50.46558" lon="1.7596">
        <ele>33.5</ele>
        <time>2019-10-06T11:02:20Z</time>
      </trkpt>
      <trkpt lat="50.46562" lon="1.75963">
        <ele>37.5</ele>
        <time>2019-10-06T11:02:47Z</time>
      </trkpt>
      <trkpt lat="50.46565" lon="1.75968">
        <ele>38.8</ele>
        <time>2019-10-06T11:02:54Z</time>
      </trkpt>
      <trkpt lat="50.46569" lon="1.75973">
        <ele>39.6</ele>
        <time>2019-10-06T11:02:59Z</time>
      </trkpt>
      <trkpt lat="50.46573" lon="1.75975">
        <ele>39.8</ele>
        <time>2019-10-06T11:03:06Z</time>
      </trkpt>
      <trkpt lat="50.46577" lon="1.75976">
        <ele>39.4</ele>
        <time>2019-10-06T11:03:13Z</time>
      </trkpt>
      <trkpt lat="50.46582" lon="1.75978">
        <ele>38.7</ele>
        <time>2019-10-06T11:03:19Z</time>
      </trkpt>
      <trkpt lat="50.46587" lon="1.75982">
        <ele>38.2</ele>
        <time>2019-10-06T11:03:24Z</time>
      </trkpt>
      <trkpt lat="50.46591" lon="1.75987">
        <ele>37.7</ele>
        <time>2019-10-06T11:03:28Z</time>
      </trkpt>
      <trkpt lat="50.46595" lon="1.75992">
        <ele>37.4</ele>
        <time>2019-10-06T11:03:32Z</time>
      </trkpt>
      <trkpt lat="50.46599" lon="1.75999">
        <ele>37.3</ele>
        <time>2019-10-06T11:03:37Z</time>
      </trkpt>
      <trkpt lat="50.46602" lon="1.76006">
        <ele>37.5</ele>
        <time>2019-10-06T11:03:41Z</time>
      </trkpt>
      <trkpt lat="50.46604" lon="1.76013">
        <ele>37.7</ele>
        <time>2019-10-06T11:03:45Z</time>
      </trkpt>
      <trkpt lat="50.46606" lon="1.76021">
        <ele>38.1</ele>
        <time>2019-10-06T11:03:49Z</time>
      </trkpt>
      <trkpt lat="50.46607" lon="1.76028">
        <ele>38.7</ele>
        <time>2019-10-06T11:03:54Z</time>
      </trkpt>
      <trkpt lat="50.46606" lon="1.76036">
        <ele>39.8</ele>
        <time>2019-10-06T11:04:02Z</time>
      </trkpt>
      <trkpt lat="50.46601" lon="1.7604">
        <ele>40.7</ele>
        <time>2019-10-06T11:04:08Z</time>
      </trkpt>
      <trkpt lat="50.46597" lon="1.76043">
        <ele>41.4</ele>
        <time>2019-10-06T11:04:14Z</time>
      </trkpt>
      <trkpt lat="50.46592" lon="1.76046">
        <ele>41.6</ele>
        <time>2019-10-06T11:04:18Z</time>
      </trkpt>
      <trkpt lat="50.46587" lon="1.7605">
        <ele>41.8</ele>
        <time>2019-10-06T11:04:22Z</time>
      </trkpt>
      <trkpt lat="50.46582" lon="1.76054">
        <ele>41.9</ele>
        <time>2019-10-06T11:04:26Z</time>
      </trkpt>
      <trkpt lat="50.46578" lon="1.76056">
        <ele>42</ele>
        <time>2019-10-06T11:04:31Z</time>
      </trkpt>
      <trkpt lat="50.46573" lon="1.7606">
        <ele>42</ele>
        <time>2019-10-06T11:04:37Z</time>
      </trkpt>
      <trkpt lat="50.46568" lon="1.76064">
        <ele>41.8</ele>
        <time>2019-10-06T11:04:41Z</time>
      </trkpt>
      <trkpt lat="50.46563" lon="1.76066">
        <ele>41.5</ele>
        <time>2019-10-06T11:04:45Z</time>
      </trkpt>
      <trkpt lat="50.46558" lon="1.76068">
        <ele>41.2</ele>
        <time>2019-10-06T11:04:50Z</time>
      </trkpt>
      <trkpt lat="50.46553" lon="1.7607">
        <ele>40.8</ele>
        <time>2019-10-06T11:04:56Z</time>
      </trkpt>
      <trkpt lat="50.46549" lon="1.76073">
        <ele>40.5</ele>
        <time>2019-10-06T11:05:01Z</time>
      </trkpt>
      <trkpt lat="50.46544" lon="1.76074">
        <ele>40.3</ele>
        <time>2019-10-06T11:05:06Z</time>
      </trkpt>
      <trkpt lat="50.4654" lon="1.76078">
        <ele>40.1</ele>
        <time>2019-10-06T11:05:12Z</time>
      </trkpt>
      <trkpt lat="50.46535" lon="1.76081">
        <ele>39.4</ele>
        <time>2019-10-06T11:05:31Z</time>
      </trkpt>
      <trkpt lat="50.46531" lon="1.76084">
        <ele>39.5</ele>
        <time>2019-10-06T11:05:40Z</time>
      </trkpt>
      <trkpt lat="50.46526" lon="1.76085">
        <ele>40.5</ele>
        <time>2019-10-06T11:05:48Z</time>
      </trkpt>
      <trkpt lat="50.46521" lon="1.76084">
        <ele>42.6</ele>
        <time>2019-10-06T11:05:58Z</time>
      </trkpt>
      <trkpt lat="50.46513" lon="1.76085">
        <ele>45.9</ele>
        <time>2019-10-06T11:07:43Z</time>
      </trkpt>
      <trkpt lat="50.46518" lon="1.76078">
        <ele>45.3</ele>
        <time>2019-10-06T11:11:02Z</time>
      </trkpt>
      <trkpt lat="50.46516" lon="1.76066">
        <ele>44.7</ele>
        <time>2019-10-06T11:11:49Z</time>
      </trkpt>
      <trkpt lat="50.46518" lon="1.76067">
        <ele>44.6</ele>
        <time>2019-10-06T11:13:13Z</time>
      </trkpt>
      <trkpt lat="50.46516" lon="1.76059">
        <ele>44.6</ele>
        <time>2019-10-06T11:13:21Z</time>
      </trkpt>
      <trkpt lat="50.46517" lon="1.76067">
        <ele>44.7</ele>
        <time>2019-10-06T11:13:33Z</time>
      </trkpt>
      <trkpt lat="50.46517" lon="1.76069">
        <ele>45.1</ele>
        <time>2019-10-06T11:22:55Z</time>
      </trkpt>
      <trkpt lat="50.46514" lon="1.76062">
        <ele>45.1</ele>
        <time>2019-10-06T11:22:58Z</time>
      </trkpt>
      <trkpt lat="50.46509" lon="1.7607">
        <ele>50.1</ele>
        <time>2019-10-06T11:31:12Z</time>
      </trkpt>
      <trkpt lat="50.46504" lon="1.7607">
        <ele>47.8</ele>
        <time>2019-10-06T11:33:14Z</time>
      </trkpt>
      <trkpt lat="50.465" lon="1.76072">
        <ele>47.6</ele>
        <time>2019-10-06T11:33:18Z</time>
      </trkpt>
      <trkpt lat="50.46495" lon="1.76072">
        <ele>47</ele>
        <time>2019-10-06T11:33:25Z</time>
      </trkpt>
      <trkpt lat="50.4649" lon="1.76071">
        <ele>46.6</ele>
        <time>2019-10-06T11:33:30Z</time>
      </trkpt>
      <trkpt lat="50.46485" lon="1.76075">
        <ele>46.5</ele>
        <time>2019-10-06T11:33:34Z</time>
      </trkpt>
      <trkpt lat="50.46481" lon="1.76078">
        <ele>46.5</ele>
        <time>2019-10-06T11:33:38Z</time>
      </trkpt>
      <trkpt lat="50.46476" lon="1.76079">
        <ele>46.6</ele>
        <time>2019-10-06T11:33:42Z</time>
      </trkpt>
      <trkpt lat="50.4647" lon="1.76079">
        <ele>46.6</ele>
        <time>2019-10-06T11:33:46Z</time>
      </trkpt>
      <trkpt lat="50.46465" lon="1.76082">
        <ele>46.6</ele>
        <time>2019-10-06T11:33:51Z</time>
      </trkpt>
      <trkpt lat="50.4646" lon="1.76084">
        <ele>46.4</ele>
        <time>2019-10-06T11:33:57Z</time>
      </trkpt>
      <trkpt lat="50.46455" lon="1.76086">
        <ele>46.2</ele>
        <time>2019-10-06T11:34:03Z</time>
      </trkpt>
      <trkpt lat="50.46451" lon="1.7609">
        <ele>45.8</ele>
        <time>2019-10-06T11:34:08Z</time>
      </trkpt>
      <trkpt lat="50.46446" lon="1.76092">
        <ele>45.6</ele>
        <time>2019-10-06T11:34:12Z</time>
      </trkpt>
      <trkpt lat="50.46441" lon="1.7609">
        <ele>45.4</ele>
        <time>2019-10-06T11:34:15Z</time>
      </trkpt>
      <trkpt lat="50.46436" lon="1.76089">
        <ele>45.2</ele>
        <time>2019-10-06T11:34:20Z</time>
      </trkpt>
      <trkpt lat="50.46432" lon="1.76094">
        <ele>45.5</ele>
        <time>2019-10-06T11:34:37Z</time>
      </trkpt>
      <trkpt lat="50.46427" lon="1.76095">
        <ele>44.7</ele>
        <time>2019-10-06T11:35:25Z</time>
      </trkpt>
      <trkpt lat="50.46424" lon="1.76089">
        <ele>44.9</ele>
        <time>2019-10-06T11:35:35Z</time>
      </trkpt>
      <trkpt lat="50.46422" lon="1.76082">
        <ele>45.6</ele>
        <time>2019-10-06T11:35:43Z</time>
      </trkpt>
      <trkpt lat="50.4642" lon="1.76075">
        <ele>46.3</ele>
        <time>2019-10-06T11:35:52Z</time>
      </trkpt>
      <trkpt lat="50.46417" lon="1.76068">
        <ele>46.5</ele>
        <time>2019-10-06T11:35:57Z</time>
      </trkpt>
      <trkpt lat="50.46414" lon="1.76062">
        <ele>46.6</ele>
        <time>2019-10-06T11:36:01Z</time>
      </trkpt>
      <trkpt lat="50.46411" lon="1.76056">
        <ele>46.7</ele>
        <time>2019-10-06T11:36:05Z</time>
      </trkpt>
      <trkpt lat="50.46409" lon="1.76048">
        <ele>46.8</ele>
        <time>2019-10-06T11:36:10Z</time>
      </trkpt>
      <trkpt lat="50.46407" lon="1.76041">
        <ele>47</ele>
        <time>2019-10-06T11:36:15Z</time>
      </trkpt>
      <trkpt lat="50.46404" lon="1.76034">
        <ele>47.5</ele>
        <time>2019-10-06T11:36:21Z</time>
      </trkpt>
      <trkpt lat="50.46402" lon="1.76028">
        <ele>48</ele>
        <time>2019-10-06T11:36:25Z</time>
      </trkpt>
      <trkpt lat="50.464" lon="1.76021">
        <ele>48.5</ele>
        <time>2019-10-06T11:36:29Z</time>
      </trkpt>
      <trkpt lat="50.46397" lon="1.76015">
        <ele>48.9</ele>
        <time>2019-10-06T11:36:34Z</time>
      </trkpt>
      <trkpt lat="50.46395" lon="1.76008">
        <ele>49.1</ele>
        <time>2019-10-06T11:36:38Z</time>
      </trkpt>
      <trkpt lat="50.46392" lon="1.76001">
        <ele>49.2</ele>
        <time>2019-10-06T11:36:43Z</time>
      </trkpt>
      <trkpt lat="50.4639" lon="1.75994">
        <ele>49.1</ele>
        <time>2019-10-06T11:36:52Z</time>
      </trkpt>
      <trkpt lat="50.46387" lon="1.75988">
        <ele>48.6</ele>
        <time>2019-10-06T11:36:59Z</time>
      </trkpt>
      <trkpt lat="50.46384" lon="1.75982">
        <ele>48.2</ele>
        <time>2019-10-06T11:37:05Z</time>
      </trkpt>
      <trkpt lat="50.46379" lon="1.7598">
        <ele>47.8</ele>
        <time>2019-10-06T11:37:14Z</time>
      </trkpt>
      <trkpt lat="50.46374" lon="1.7598">
        <ele>47.2</ele>
        <time>2019-10-06T11:37:22Z</time>
      </trkpt>
      <trkpt lat="50.4637" lon="1.75982">
        <ele>47</ele>
        <time>2019-10-06T11:37:25Z</time>
      </trkpt>
      <trkpt lat="50.46364" lon="1.75985">
        <ele>46.7</ele>
        <time>2019-10-06T11:37:29Z</time>
      </trkpt>
      <trkpt lat="50.46359" lon="1.75984">
        <ele>46.4</ele>
        <time>2019-10-06T11:37:33Z</time>
      </trkpt>
      <trkpt lat="50.46354" lon="1.75986">
        <ele>46</ele>
        <time>2019-10-06T11:37:38Z</time>
      </trkpt>
      <trkpt lat="50.46349" lon="1.75987">
        <ele>45.6</ele>
        <time>2019-10-06T11:37:43Z</time>
      </trkpt>
      <trkpt lat="50.46345" lon="1.75992">
        <ele>45.5</ele>
        <time>2019-10-06T11:37:48Z</time>
      </trkpt>
      <trkpt lat="50.46341" lon="1.75995">
        <ele>45.4</ele>
        <time>2019-10-06T11:37:52Z</time>
      </trkpt>
      <trkpt lat="50.46341" lon="1.76004">
        <ele>45.3</ele>
        <time>2019-10-06T11:37:55Z</time>
      </trkpt>
      <trkpt lat="50.4634" lon="1.76011">
        <ele>45</ele>
        <time>2019-10-06T11:37:58Z</time>
      </trkpt>
      <trkpt lat="50.46336" lon="1.76018">
        <ele>44.7</ele>
        <time>2019-10-06T11:38:02Z</time>
      </trkpt>
      <trkpt lat="50.46331" lon="1.7602">
        <ele>44.3</ele>
        <time>2019-10-06T11:38:06Z</time>
      </trkpt>
      <trkpt lat="50.46326" lon="1.76023">
        <ele>44.1</ele>
        <time>2019-10-06T11:38:11Z</time>
      </trkpt>
      <trkpt lat="50.4632" lon="1.76024">
        <ele>43.8</ele>
        <time>2019-10-06T11:38:16Z</time>
      </trkpt>
      <trkpt lat="50.46316" lon="1.76025">
        <ele>43.6</ele>
        <time>2019-10-06T11:38:20Z</time>
      </trkpt>
      <trkpt lat="50.46311" lon="1.76021">
        <ele>43.5</ele>
        <time>2019-10-06T11:38:23Z</time>
      </trkpt>
      <trkpt lat="50.46306" lon="1.7602">
        <ele>43.5</ele>
        <time>2019-10-06T11:38:26Z</time>
      </trkpt>
      <trkpt lat="50.46301" lon="1.76021">
        <ele>43.6</ele>
        <time>2019-10-06T11:38:30Z</time>
      </trkpt>
      <trkpt lat="50.46296" lon="1.76022">
        <ele>43.7</ele>
        <time>2019-10-06T11:38:35Z</time>
      </trkpt>
      <trkpt lat="50.46291" lon="1.76021">
        <ele>43.5</ele>
        <time>2019-10-06T11:38:39Z</time>
      </trkpt>
      <trkpt lat="50.46287" lon="1.76021">
        <ele>43.3</ele>
        <time>2019-10-06T11:38:43Z</time>
      </trkpt>
      <trkpt lat="50.46281" lon="1.76021">
        <ele>43.5</ele>
        <time>2019-10-06T11:38:52Z</time>
      </trkpt>
      <trkpt lat="50.46277" lon="1.76024">
        <ele>43.7</ele>
        <time>2019-10-06T11:38:59Z</time>
      </trkpt>
      <trkpt lat="50.46272" lon="1.76025">
        <ele>43.9</ele>
        <time>2019-10-06T11:39:04Z</time>
      </trkpt>
      <trkpt lat="50.46267" lon="1.76024">
        <ele>44.1</ele>
        <time>2019-10-06T11:39:09Z</time>
      </trkpt>
      <trkpt lat="50.46262" lon="1.76025">
        <ele>44.2</ele>
        <time>2019-10-06T11:39:14Z</time>
      </trkpt>
      <trkpt lat="50.46258" lon="1.76024">
        <ele>44.3</ele>
        <time>2019-10-06T11:39:18Z</time>
      </trkpt>
      <trkpt lat="50.46253" lon="1.76025">
        <ele>44.1</ele>
        <time>2019-10-06T11:39:26Z</time>
      </trkpt>
      <trkpt lat="50.46247" lon="1.76027">
        <ele>44</ele>
        <time>2019-10-06T11:39:31Z</time>
      </trkpt>
      <trkpt lat="50.46243" lon="1.7603">
        <ele>43.7</ele>
        <time>2019-10-06T11:39:36Z</time>
      </trkpt>
      <trkpt lat="50.46237" lon="1.76028">
        <ele>43.4</ele>
        <time>2019-10-06T11:39:44Z</time>
      </trkpt>
      <trkpt lat="50.46233" lon="1.76025">
        <ele>43.2</ele>
        <time>2019-10-06T11:39:47Z</time>
      </trkpt>
      <trkpt lat="50.46229" lon="1.76024">
        <ele>43</ele>
        <time>2019-10-06T11:39:51Z</time>
      </trkpt>
      <trkpt lat="50.46224" lon="1.76022">
        <ele>42.9</ele>
        <time>2019-10-06T11:39:55Z</time>
      </trkpt>
      <trkpt lat="50.46219" lon="1.76019">
        <ele>42.7</ele>
        <time>2019-10-06T11:40:00Z</time>
      </trkpt>
      <trkpt lat="50.46214" lon="1.76016">
        <ele>42.5</ele>
        <time>2019-10-06T11:40:05Z</time>
      </trkpt>
      <trkpt lat="50.46209" lon="1.76013">
        <ele>42.5</ele>
        <time>2019-10-06T11:40:10Z</time>
      </trkpt>
      <trkpt lat="50.46204" lon="1.7601">
        <ele>42.5</ele>
        <time>2019-10-06T11:40:15Z</time>
      </trkpt>
      <trkpt lat="50.462" lon="1.76008">
        <ele>42.4</ele>
        <time>2019-10-06T11:40:19Z</time>
      </trkpt>
      <trkpt lat="50.46194" lon="1.76005">
        <ele>42</ele>
        <time>2019-10-06T11:40:24Z</time>
      </trkpt>
      <trkpt lat="50.46189" lon="1.76002">
        <ele>41.7</ele>
        <time>2019-10-06T11:40:29Z</time>
      </trkpt>
      <trkpt lat="50.46185" lon="1.76001">
        <ele>41.5</ele>
        <time>2019-10-06T11:40:33Z</time>
      </trkpt>
      <trkpt lat="50.4618" lon="1.76">
        <ele>41.3</ele>
        <time>2019-10-06T11:40:37Z</time>
      </trkpt>
      <trkpt lat="50.46175" lon="1.75999">
        <ele>41.3</ele>
        <time>2019-10-06T11:40:41Z</time>
      </trkpt>
      <trkpt lat="50.4617" lon="1.75997">
        <ele>41.3</ele>
        <time>2019-10-06T11:40:46Z</time>
      </trkpt>
      <trkpt lat="50.46165" lon="1.75997">
        <ele>41.3</ele>
        <time>2019-10-06T11:40:51Z</time>
      </trkpt>
      <trkpt lat="50.4616" lon="1.75999">
        <ele>41.1</ele>
        <time>2019-10-06T11:40:55Z</time>
      </trkpt>
      <trkpt lat="50.46155" lon="1.75998">
        <ele>40.8</ele>
        <time>2019-10-06T11:41:00Z</time>
      </trkpt>
      <trkpt lat="50.46151" lon="1.75999">
        <ele>40.2</ele>
        <time>2019-10-06T11:41:15Z</time>
      </trkpt>
      <trkpt lat="50.46148" lon="1.76006">
        <ele>40.2</ele>
        <time>2019-10-06T11:41:20Z</time>
      </trkpt>
      <trkpt lat="50.46144" lon="1.76013">
        <ele>40.3</ele>
        <time>2019-10-06T11:41:24Z</time>
      </trkpt>
      <trkpt lat="50.46141" lon="1.76019">
        <ele>40.5</ele>
        <time>2019-10-06T11:41:29Z</time>
      </trkpt>
      <trkpt lat="50.46138" lon="1.76012">
        <ele>41.1</ele>
        <time>2019-10-06T11:41:46Z</time>
      </trkpt>
      <trkpt lat="50.46134" lon="1.76007">
        <ele>41.3</ele>
        <time>2019-10-06T11:41:49Z</time>
      </trkpt>
      <trkpt lat="50.46131" lon="1.76">
        <ele>41.5</ele>
        <time>2019-10-06T11:41:52Z</time>
      </trkpt>
      <trkpt lat="50.46129" lon="1.75993">
        <ele>41.7</ele>
        <time>2019-10-06T11:41:55Z</time>
      </trkpt>
      <trkpt lat="50.46129" lon="1.75985">
        <ele>41.8</ele>
        <time>2019-10-06T11:42:01Z</time>
      </trkpt>
      <trkpt lat="50.46127" lon="1.75979">
        <ele>42.6</ele>
        <time>2019-10-06T11:42:11Z</time>
      </trkpt>
      <trkpt lat="50.46124" lon="1.75974">
        <ele>42.9</ele>
        <time>2019-10-06T11:42:14Z</time>
      </trkpt>
      <trkpt lat="50.4612" lon="1.75969">
        <ele>43.4</ele>
        <time>2019-10-06T11:42:19Z</time>
      </trkpt>
      <trkpt lat="50.46115" lon="1.75964">
        <ele>43.8</ele>
        <time>2019-10-06T11:42:24Z</time>
      </trkpt>
      <trkpt lat="50.46111" lon="1.7596">
        <ele>44.4</ele>
        <time>2019-10-06T11:42:29Z</time>
      </trkpt>
      <trkpt lat="50.46106" lon="1.75956">
        <ele>44.8</ele>
        <time>2019-10-06T11:42:33Z</time>
      </trkpt>
      <trkpt lat="50.46101" lon="1.75953">
        <ele>45</ele>
        <time>2019-10-06T11:42:37Z</time>
      </trkpt>
      <trkpt lat="50.46097" lon="1.75949">
        <ele>45.2</ele>
        <time>2019-10-06T11:42:41Z</time>
      </trkpt>
      <trkpt lat="50.46092" lon="1.75947">
        <ele>45.3</ele>
        <time>2019-10-06T11:42:46Z</time>
      </trkpt>
      <trkpt lat="50.46088" lon="1.75944">
        <ele>45.5</ele>
        <time>2019-10-06T11:42:52Z</time>
      </trkpt>
      <trkpt lat="50.46092" lon="1.75927">
        <ele>45.5</ele>
        <time>2019-10-06T11:43:04Z</time>
      </trkpt>
      <trkpt lat="50.46089" lon="1.75921">
        <ele>45.5</ele>
        <time>2019-10-06T11:43:06Z</time>
      </trkpt>
      <trkpt lat="50.46085" lon="1.75914">
        <ele>45.6</ele>
        <time>2019-10-06T11:43:10Z</time>
      </trkpt>
      <trkpt lat="50.46082" lon="1.75908">
        <ele>45.9</ele>
        <time>2019-10-06T11:43:16Z</time>
      </trkpt>
      <trkpt lat="50.46081" lon="1.75901">
        <ele>46.3</ele>
        <time>2019-10-06T11:43:22Z</time>
      </trkpt>
      <trkpt lat="50.46079" lon="1.75893">
        <ele>46.5</ele>
        <time>2019-10-06T11:43:27Z</time>
      </trkpt>
      <trkpt lat="50.46075" lon="1.75888">
        <ele>46.6</ele>
        <time>2019-10-06T11:43:30Z</time>
      </trkpt>
      <trkpt lat="50.46071" lon="1.75883">
        <ele>46.6</ele>
        <time>2019-10-06T11:43:33Z</time>
      </trkpt>
      <trkpt lat="50.46067" lon="1.75879">
        <ele>46.5</ele>
        <time>2019-10-06T11:43:36Z</time>
      </trkpt>
      <trkpt lat="50.46063" lon="1.75875">
        <ele>46.2</ele>
        <time>2019-10-06T11:43:40Z</time>
      </trkpt>
      <trkpt lat="50.46058" lon="1.75871">
        <ele>45.9</ele>
        <time>2019-10-06T11:43:44Z</time>
      </trkpt>
      <trkpt lat="50.46054" lon="1.75866">
        <ele>45.8</ele>
        <time>2019-10-06T11:43:48Z</time>
      </trkpt>
      <trkpt lat="50.46049" lon="1.75861">
        <ele>45.7</ele>
        <time>2019-10-06T11:43:52Z</time>
      </trkpt>
      <trkpt lat="50.46044" lon="1.75856">
        <ele>45.6</ele>
        <time>2019-10-06T11:43:56Z</time>
      </trkpt>
      <trkpt lat="50.46041" lon="1.75852">
        <ele>45.7</ele>
        <time>2019-10-06T11:43:59Z</time>
      </trkpt>
      <trkpt lat="50.46036" lon="1.75849">
        <ele>45.7</ele>
        <time>2019-10-06T11:44:03Z</time>
      </trkpt>
      <trkpt lat="50.46032" lon="1.75844">
        <ele>45.8</ele>
        <time>2019-10-06T11:44:08Z</time>
      </trkpt>
      <trkpt lat="50.46028" lon="1.7584">
        <ele>46</ele>
        <time>2019-10-06T11:44:13Z</time>
      </trkpt>
      <trkpt lat="50.46023" lon="1.75836">
        <ele>46.4</ele>
        <time>2019-10-06T11:44:17Z</time>
      </trkpt>
      <trkpt lat="50.46019" lon="1.75835">
        <ele>46.9</ele>
        <time>2019-10-06T11:44:21Z</time>
      </trkpt>
      <trkpt lat="50.46013" lon="1.75833">
        <ele>47.8</ele>
        <time>2019-10-06T11:44:26Z</time>
      </trkpt>
      <trkpt lat="50.46006" lon="1.75833">
        <ele>48.3</ele>
        <time>2019-10-06T11:44:29Z</time>
      </trkpt>
      <trkpt lat="50.46001" lon="1.75835">
        <ele>48.5</ele>
        <time>2019-10-06T11:44:32Z</time>
      </trkpt>
      <trkpt lat="50.45996" lon="1.75835">
        <ele>48.5</ele>
        <time>2019-10-06T11:44:37Z</time>
      </trkpt>
      <trkpt lat="50.45991" lon="1.75834">
        <ele>48.6</ele>
        <time>2019-10-06T11:44:41Z</time>
      </trkpt>
      <trkpt lat="50.45986" lon="1.75832">
        <ele>48.8</ele>
        <time>2019-10-06T11:44:45Z</time>
      </trkpt>
      <trkpt lat="50.45981" lon="1.75831">
        <ele>49</ele>
        <time>2019-10-06T11:44:48Z</time>
      </trkpt>
      <trkpt lat="50.45976" lon="1.75829">
        <ele>49.2</ele>
        <time>2019-10-06T11:44:51Z</time>
      </trkpt>
      <trkpt lat="50.45971" lon="1.75829">
        <ele>49.5</ele>
        <time>2019-10-06T11:44:55Z</time>
      </trkpt>
      <trkpt lat="50.45966" lon="1.7583">
        <ele>49.5</ele>
        <time>2019-10-06T11:44:59Z</time>
      </trkpt>
      <trkpt lat="50.45961" lon="1.7583">
        <ele>49.4</ele>
        <time>2019-10-06T11:45:02Z</time>
      </trkpt>
      <trkpt lat="50.45955" lon="1.75828">
        <ele>49.3</ele>
        <time>2019-10-06T11:45:06Z</time>
      </trkpt>
      <trkpt lat="50.4595" lon="1.75826">
        <ele>49.3</ele>
        <time>2019-10-06T11:45:09Z</time>
      </trkpt>
      <trkpt lat="50.45947" lon="1.75833">
        <ele>49.4</ele>
        <time>2019-10-06T11:45:16Z</time>
      </trkpt>
      <trkpt lat="50.45946" lon="1.7584">
        <ele>49.4</ele>
        <time>2019-10-06T11:45:20Z</time>
      </trkpt>
      <trkpt lat="50.45945" lon="1.75848">
        <ele>49.3</ele>
        <time>2019-10-06T11:45:24Z</time>
      </trkpt>
      <trkpt lat="50.45943" lon="1.75858">
        <ele>49.2</ele>
        <time>2019-10-06T11:45:28Z</time>
      </trkpt>
      <trkpt lat="50.45942" lon="1.75867">
        <ele>49.1</ele>
        <time>2019-10-06T11:45:31Z</time>
      </trkpt>
      <trkpt lat="50.45942" lon="1.75874">
        <ele>49</ele>
        <time>2019-10-06T11:45:35Z</time>
      </trkpt>
      <trkpt lat="50.45943" lon="1.75882">
        <ele>48.8</ele>
        <time>2019-10-06T11:45:39Z</time>
      </trkpt>
      <trkpt lat="50.45943" lon="1.7589">
        <ele>48.7</ele>
        <time>2019-10-06T11:45:44Z</time>
      </trkpt>
      <trkpt lat="50.45942" lon="1.75899">
        <ele>48.6</ele>
        <time>2019-10-06T11:45:49Z</time>
      </trkpt>
      <trkpt lat="50.4594" lon="1.75908">
        <ele>48.4</ele>
        <time>2019-10-06T11:45:53Z</time>
      </trkpt>
      <trkpt lat="50.4594" lon="1.75915">
        <ele>48.1</ele>
        <time>2019-10-06T11:45:57Z</time>
      </trkpt>
      <trkpt lat="50.45943" lon="1.7592">
        <ele>47.7</ele>
        <time>2019-10-06T11:46:04Z</time>
      </trkpt>
      <trkpt lat="50.45947" lon="1.75925">
        <ele>47.3</ele>
        <time>2019-10-06T11:46:12Z</time>
      </trkpt>
      <trkpt lat="50.45947" lon="1.75933">
        <ele>46.8</ele>
        <time>2019-10-06T11:46:22Z</time>
      </trkpt>
      <trkpt lat="50.45945" lon="1.75939">
        <ele>46.2</ele>
        <time>2019-10-06T11:46:38Z</time>
      </trkpt>
      <trkpt lat="50.45941" lon="1.75938">
        <ele>48.5</ele>
        <time>2019-10-06T11:47:39Z</time>
      </trkpt>
      <trkpt lat="50.45945" lon="1.75935">
        <ele>49.7</ele>
        <time>2019-10-06T11:48:02Z</time>
      </trkpt>
      <trkpt lat="50.45944" lon="1.75928">
        <ele>51</ele>
        <time>2019-10-06T11:48:25Z</time>
      </trkpt>
      <trkpt lat="50.45943" lon="1.75921">
        <ele>50.8</ele>
        <time>2019-10-06T11:48:32Z</time>
      </trkpt>
      <trkpt lat="50.4594" lon="1.75914">
        <ele>50.4</ele>
        <time>2019-10-06T11:48:39Z</time>
      </trkpt>
      <trkpt lat="50.45941" lon="1.75906">
        <ele>50.1</ele>
        <time>2019-10-06T11:48:45Z</time>
      </trkpt>
      <trkpt lat="50.45942" lon="1.75898">
        <ele>49.9</ele>
        <time>2019-10-06T11:48:51Z</time>
      </trkpt>
      <trkpt lat="50.45944" lon="1.75892">
        <ele>49.7</ele>
        <time>2019-10-06T11:48:58Z</time>
      </trkpt>
      <trkpt lat="50.45949" lon="1.7589">
        <ele>49.4</ele>
        <time>2019-10-06T11:49:07Z</time>
      </trkpt>
      <trkpt lat="50.45953" lon="1.75887">
        <ele>48.9</ele>
        <time>2019-10-06T11:49:17Z</time>
      </trkpt>
      <trkpt lat="50.45958" lon="1.75886">
        <ele>48.4</ele>
        <time>2019-10-06T11:49:26Z</time>
      </trkpt>
      <trkpt lat="50.45962" lon="1.7589">
        <ele>48.1</ele>
        <time>2019-10-06T11:49:42Z</time>
      </trkpt>
      <trkpt lat="50.45967" lon="1.75889">
        <ele>43</ele>
        <time>2019-10-06T11:54:29Z</time>
      </trkpt>
      <trkpt lat="50.45962" lon="1.75887">
        <ele>42.7</ele>
        <time>2019-10-06T12:01:50Z</time>
      </trkpt>
      <trkpt lat="50.45966" lon="1.7589">
        <ele>43.5</ele>
        <time>2019-10-06T12:11:06Z</time>
      </trkpt>
      <trkpt lat="50.45961" lon="1.75891">
        <ele>43.2</ele>
        <time>2019-10-06T12:12:32Z</time>
      </trkpt>
      <trkpt lat="50.45957" lon="1.75894">
        <ele>43</ele>
        <time>2019-10-06T12:20:53Z</time>
      </trkpt>
      <trkpt lat="50.45954" lon="1.75889">
        <ele>43.4</ele>
        <time>2019-10-06T12:21:01Z</time>
      </trkpt>
    </trkseg>
  </trk>
</gpx>